<?xml version='1.0' encoding='UTF-8'?><gpx version="1.1" creator="JPX - https://github.com/jenetics/jpx" xmlns="http://www.topografix.com/GPX/1/1"><trk><trkseg><trkpt lat="44.7747338" lon="8.7814593"><ele>184.0</ele><time>2026-05-05T06:46:12.194Z</time></trkpt><trkpt lat="44.7747502" lon="8.781368"><ele>184.0</ele><time>2026-05-05T06:46:16.556Z</time></trkpt><trkpt lat="44.7747744" lon="8.7812809"><ele>184.0</ele><time>2026-05-05T06:46:21.488Z</time></trkpt><trkpt lat="44.7748024" lon="8.7812008"><ele>184.0</ele><time>2026-05-05T06:46:27.557Z</time></trkpt><trkpt lat="44.7748339" lon="8.7810902"><ele>184.0</ele><time>2026-05-05T06:46:33.534Z</time></trkpt><trkpt lat="44.7748695" lon="8.7809861"><ele>184.0</ele><time>2026-05-05T06:46:38.133Z</time></trkpt><trkpt lat="44.7749006" lon="8.7809012"><ele>184.0</ele><time>2026-05-05T06:46:42.373Z</time></trkpt><trkpt lat="44.774933" lon="8.7808054"><ele>184.0</ele><time>2026-05-05T06:46:47.358Z</time></trkpt><trkpt lat="44.7749717" lon="8.7807166"><ele>184.0</ele><time>2026-05-05T06:46:52.511Z</time></trkpt><trkpt lat="44.7749977" lon="8.7806253"><ele>184.0</ele><time>2026-05-05T06:46:57.535Z</time></trkpt><trkpt lat="44.7750063" lon="8.780521"><ele>184.0</ele><time>2026-05-05T06:47:01.23Z</time></trkpt><trkpt lat="44.7750189" lon="8.7804211"><ele>184.0</ele><time>2026-05-05T06:47:05.471Z</time></trkpt><trkpt lat="44.7750475" lon="8.7803276"><ele>184.0</ele><time>2026-05-05T06:47:09.557Z</time></trkpt><trkpt lat="44.7750778" lon="8.7802365"><ele>184.0</ele><time>2026-05-05T06:47:14.238Z</time></trkpt><trkpt lat="44.7751133" lon="8.7801487"><ele>183.57142857142858</ele><time>2026-05-05T06:47:18.935Z</time></trkpt><trkpt lat="44.7751386" lon="8.7800411"><ele>183.14285714285714</ele><time>2026-05-05T06:47:24.375Z</time></trkpt><trkpt lat="44.7751545" lon="8.7799528"><ele>182.71428571428572</ele><time>2026-05-05T06:47:28.557Z</time></trkpt><trkpt lat="44.7751847" lon="8.7798605"><ele>182.28571428571428</ele><time>2026-05-05T06:47:33.557Z</time></trkpt><trkpt lat="44.7752066" lon="8.7797596"><ele>181.85714285714283</ele><time>2026-05-05T06:47:38.556Z</time></trkpt><trkpt lat="44.77524" lon="8.7796597"><ele>181.42857142857142</ele><time>2026-05-05T06:47:43.591Z</time></trkpt><trkpt lat="44.7752546" lon="8.7795679"><ele>181.0</ele><time>2026-05-05T06:47:49.556Z</time></trkpt><trkpt lat="44.7752681" lon="8.7794754"><ele>181.0</ele><time>2026-05-05T06:47:53.557Z</time></trkpt><trkpt lat="44.7752913" lon="8.7793907"><ele>181.0</ele><time>2026-05-05T06:47:58.475Z</time></trkpt><trkpt lat="44.7753208" lon="8.7793095"><ele>181.0</ele><time>2026-05-05T06:48:02.227Z</time></trkpt><trkpt lat="44.7753471" lon="8.7792169"><ele>181.0</ele><time>2026-05-05T06:48:07.035Z</time></trkpt><trkpt lat="44.7753834" lon="8.7791127"><ele>181.0</ele><time>2026-05-05T06:48:13.557Z</time></trkpt><trkpt lat="44.7754091" lon="8.7790235"><ele>181.0</ele><time>2026-05-05T06:48:18.337Z</time></trkpt><trkpt lat="44.7754466" lon="8.7789275"><ele>181.0</ele><time>2026-05-05T06:48:24.572Z</time></trkpt><trkpt lat="44.775473" lon="8.778825"><ele>180.85714285714286</ele><time>2026-05-05T06:48:29.56Z</time></trkpt><trkpt lat="44.7755" lon="8.7787323"><ele>180.71428571428572</ele><time>2026-05-05T06:48:34.431Z</time></trkpt><trkpt lat="44.7755266" lon="8.7786331"><ele>180.57142857142856</ele><time>2026-05-05T06:48:39.569Z</time></trkpt><trkpt lat="44.775565" lon="8.7785578"><ele>180.42857142857144</ele><time>2026-05-05T06:48:46.557Z</time></trkpt><trkpt lat="44.7756238" lon="8.7785017"><ele>180.2857142857143</ele><time>2026-05-05T06:48:51.557Z</time></trkpt><trkpt lat="44.7756455" lon="8.7784049"><ele>180.14285714285714</ele><time>2026-05-05T06:48:55.472Z</time></trkpt><trkpt lat="44.7756491" lon="8.778289"><ele>180.0</ele><time>2026-05-05T06:49:00.579Z</time></trkpt><trkpt lat="44.7756712" lon="8.7782001"><ele>180.0</ele><time>2026-05-05T06:49:06.335Z</time></trkpt><trkpt lat="44.7757073" lon="8.7781099"><ele>180.0</ele><time>2026-05-05T06:49:11.515Z</time></trkpt><trkpt lat="44.7757346" lon="8.7780294"><ele>180.0</ele><time>2026-05-05T06:49:17.575Z</time></trkpt><trkpt lat="44.7757655" lon="8.777949"><ele>180.0</ele><time>2026-05-05T06:49:20.495Z</time></trkpt><trkpt lat="44.7758295" lon="8.7779621"><ele>180.0</ele><time>2026-05-05T06:49:27.556Z</time></trkpt><trkpt lat="44.7759048" lon="8.777996"><ele>180.0</ele><time>2026-05-05T06:49:32.47Z</time></trkpt><trkpt lat="44.7759694" lon="8.7780054"><ele>180.0</ele><time>2026-05-05T06:49:37.096Z</time></trkpt><trkpt lat="44.7760325" lon="8.7780072"><ele>180.0</ele><time>2026-05-05T06:49:41.558Z</time></trkpt><trkpt lat="44.7761007" lon="8.7780241"><ele>180.0</ele><time>2026-05-05T06:49:45.434Z</time></trkpt><trkpt lat="44.776166" lon="8.77804"><ele>180.0</ele><time>2026-05-05T06:49:49.111Z</time></trkpt><trkpt lat="44.7762324" lon="8.7780484"><ele>180.0</ele><time>2026-05-05T06:49:53.776Z</time></trkpt><trkpt lat="44.7763123" lon="8.778059"><ele>180.0</ele><time>2026-05-05T06:49:59.308Z</time></trkpt><trkpt lat="44.7763935" lon="8.7780744"><ele>180.0</ele><time>2026-05-05T06:50:06.557Z</time></trkpt><trkpt lat="44.77649" lon="8.7780789"><ele>180.0</ele><time>2026-05-05T06:50:11.253Z</time></trkpt><trkpt lat="44.7765627" lon="8.7780987"><ele>180.0</ele><time>2026-05-05T06:50:15.875Z</time></trkpt><trkpt lat="44.7766252" lon="8.7781256"><ele>180.0</ele><time>2026-05-05T06:50:21.451Z</time></trkpt><trkpt lat="44.7767025" lon="8.7781127"><ele>180.0</ele><time>2026-05-05T06:50:26.108Z</time></trkpt><trkpt lat="44.7767853" lon="8.7781157"><ele>180.0</ele><time>2026-05-05T06:50:30.755Z</time></trkpt><trkpt lat="44.7768477" lon="8.7781025"><ele>180.0</ele><time>2026-05-05T06:50:34.555Z</time></trkpt><trkpt lat="44.7769152" lon="8.7780391"><ele>180.0</ele><time>2026-05-05T06:50:39.557Z</time></trkpt><trkpt lat="44.7769466" lon="8.7779396"><ele>179.7142857142857</ele><time>2026-05-05T06:50:44.557Z</time></trkpt><trkpt lat="44.7770096" lon="8.7778791"><ele>179.42857142857144</ele><time>2026-05-05T06:50:51.557Z</time></trkpt><trkpt lat="44.7770452" lon="8.7777937"><ele>179.14285714285714</ele><time>2026-05-05T06:50:56.534Z</time></trkpt><trkpt lat="44.7770958" lon="8.7777173"><ele>178.85714285714283</ele><time>2026-05-05T06:51:01.399Z</time></trkpt><trkpt lat="44.7771409" lon="8.7776436"><ele>178.57142857142856</ele><time>2026-05-05T06:51:06.556Z</time></trkpt><trkpt lat="44.7771886" lon="8.7775594"><ele>178.28571428571428</ele><time>2026-05-05T06:51:13.557Z</time></trkpt><trkpt lat="44.7772266" lon="8.7774781"><ele>178.0</ele><time>2026-05-05T06:51:18.515Z</time></trkpt><trkpt lat="44.7772646" lon="8.7773912"><ele>177.99999999999997</ele><time>2026-05-05T06:51:23.578Z</time></trkpt><trkpt lat="44.7773112" lon="8.7773231"><ele>178.0</ele><time>2026-05-05T06:51:28.336Z</time></trkpt><trkpt lat="44.7773486" lon="8.7772421"><ele>178.0</ele><time>2026-05-05T06:51:33.352Z</time></trkpt><trkpt lat="44.7773862" lon="8.7771674"><ele>178.0</ele><time>2026-05-05T06:51:37.557Z</time></trkpt><trkpt lat="44.7774297" lon="8.7770852"><ele>178.0</ele><time>2026-05-05T06:51:42.557Z</time></trkpt><trkpt lat="44.7774837" lon="8.7770144"><ele>177.99999999999997</ele><time>2026-05-05T06:51:48.557Z</time></trkpt><trkpt lat="44.777518" lon="8.776936"><ele>178.0</ele><time>2026-05-05T06:51:52.495Z</time></trkpt><trkpt lat="44.7775591" lon="8.7768429"><ele>177.99999999999997</ele><time>2026-05-05T06:51:57.557Z</time></trkpt><trkpt lat="44.7776041" lon="8.7767618"><ele>178.0</ele><time>2026-05-05T06:52:02.557Z</time></trkpt><trkpt lat="44.7776476" lon="8.776679"><ele>178.0</ele><time>2026-05-05T06:52:07.557Z</time></trkpt><trkpt lat="44.7776882" lon="8.7765903"><ele>178.0</ele><time>2026-05-05T06:52:12.558Z</time></trkpt><trkpt lat="44.7777253" lon="8.7765085"><ele>178.0</ele><time>2026-05-05T06:52:17.408Z</time></trkpt><trkpt lat="44.7777688" lon="8.7764287"><ele>177.99999999999997</ele><time>2026-05-05T06:52:22.556Z</time></trkpt><trkpt lat="44.7778135" lon="8.7763614"><ele>178.0</ele><time>2026-05-05T06:52:27.328Z</time></trkpt><trkpt lat="44.7778603" lon="8.7762769"><ele>177.99999999999997</ele><time>2026-05-05T06:52:32.557Z</time></trkpt><trkpt lat="44.7778927" lon="8.7761878"><ele>178.0</ele><time>2026-05-05T06:52:37.557Z</time></trkpt><trkpt lat="44.7779463" lon="8.7761019"><ele>178.0</ele><time>2026-05-05T06:52:43.235Z</time></trkpt><trkpt lat="44.7779776" lon="8.7760104"><ele>178.0</ele><time>2026-05-05T06:52:47.097Z</time></trkpt><trkpt lat="44.7780259" lon="8.7759291"><ele>178.0</ele><time>2026-05-05T06:52:54.557Z</time></trkpt><trkpt lat="44.778059" lon="8.7758305"><ele>177.99999999999997</ele><time>2026-05-05T06:52:59.557Z</time></trkpt><trkpt lat="44.7780977" lon="8.7757521"><ele>178.0</ele><time>2026-05-05T06:53:02.55Z</time></trkpt><trkpt lat="44.7781448" lon="8.7756567"><ele>178.0</ele><time>2026-05-05T06:53:07.557Z</time></trkpt><trkpt lat="44.77819" lon="8.7755784"><ele>178.0</ele><time>2026-05-05T06:53:15.13Z</time></trkpt><trkpt lat="44.7782698" lon="8.7755009"><ele>178.0</ele><time>2026-05-05T06:53:21.674Z</time></trkpt><trkpt lat="44.7783519" lon="8.7754647"><ele>178.0</ele><time>2026-05-05T06:53:26.371Z</time></trkpt><trkpt lat="44.7784245" lon="8.7754609"><ele>178.0</ele><time>2026-05-05T06:53:31.557Z</time></trkpt><trkpt lat="44.7784908" lon="8.775436"><ele>178.0</ele><time>2026-05-05T06:53:36.557Z</time></trkpt><trkpt lat="44.7785511" lon="8.7753977"><ele>177.99999999999997</ele><time>2026-05-05T06:53:41.393Z</time></trkpt><trkpt lat="44.7785979" lon="8.7753348"><ele>178.0</ele><time>2026-05-05T06:53:44.557Z</time></trkpt><trkpt lat="44.7786627" lon="8.7752959"><ele>178.0</ele><time>2026-05-05T06:53:50.351Z</time></trkpt><trkpt lat="44.7787402" lon="8.7752899"><ele>178.0</ele><time>2026-05-05T06:53:56.315Z</time></trkpt><trkpt lat="44.778811" lon="8.7752933"><ele>178.0</ele><time>2026-05-05T06:54:01.571Z</time></trkpt><trkpt lat="44.7788806" lon="8.7752942"><ele>177.99999999999997</ele><time>2026-05-05T06:54:08.49Z</time></trkpt><trkpt lat="44.7789743" lon="8.7752965"><ele>178.0</ele><time>2026-05-05T06:54:12.557Z</time></trkpt><trkpt lat="44.7790389" lon="8.7752865"><ele>178.0</ele><time>2026-05-05T06:54:16.557Z</time></trkpt></trkseg><trkseg><trkpt lat="44.7827992" lon="8.7758034"><ele>173.0</ele><time>2026-05-05T06:59:02.511Z</time></trkpt><trkpt lat="44.7827113" lon="8.7758158"><ele>173.0</ele><time>2026-05-05T06:59:05.509Z</time></trkpt><trkpt lat="44.7827736" lon="8.7758364"><ele>173.0</ele><time>2026-05-05T06:59:12.223Z</time></trkpt><trkpt lat="44.7828391" lon="8.7758575"><ele>173.0</ele><time>2026-05-05T06:59:16.987Z</time></trkpt><trkpt lat="44.7829076" lon="8.7758907"><ele>173.0</ele><time>2026-05-05T06:59:22.558Z</time></trkpt><trkpt lat="44.7829805" lon="8.7758911"><ele>173.0</ele><time>2026-05-05T06:59:27.557Z</time></trkpt><trkpt lat="44.7830457" lon="8.7759129"><ele>173.0</ele><time>2026-05-05T06:59:33.207Z</time></trkpt><trkpt lat="44.7831128" lon="8.7759384"><ele>173.0</ele><time>2026-05-05T06:59:38.558Z</time></trkpt><trkpt lat="44.783188" lon="8.7759576"><ele>173.0</ele><time>2026-05-05T06:59:43.557Z</time></trkpt><trkpt lat="44.7832529" lon="8.7759801"><ele>173.0</ele><time>2026-05-05T06:59:49.511Z</time></trkpt><trkpt lat="44.783332" lon="8.7759966"><ele>173.0</ele><time>2026-05-05T06:59:57.444Z</time></trkpt><trkpt lat="44.7833989" lon="8.7760276"><ele>173.0</ele><time>2026-05-05T07:00:01.556Z</time></trkpt><trkpt lat="44.7834749" lon="8.7760461"><ele>173.0</ele><time>2026-05-05T07:00:07.406Z</time></trkpt><trkpt lat="44.7835555" lon="8.7760896"><ele>172.7142857142857</ele><time>2026-05-05T07:00:13.414Z</time></trkpt><trkpt lat="44.7836322" lon="8.7760935"><ele>172.42857142857144</ele><time>2026-05-05T07:00:16.557Z</time></trkpt><trkpt lat="44.7837095" lon="8.7761397"><ele>172.14285714285714</ele><time>2026-05-05T07:00:22.557Z</time></trkpt><trkpt lat="44.7837735" lon="8.7761657"><ele>171.85714285714283</ele><time>2026-05-05T07:00:27.387Z</time></trkpt><trkpt lat="44.7838495" lon="8.7761905"><ele>171.57142857142856</ele><time>2026-05-05T07:00:32.49Z</time></trkpt><trkpt lat="44.7839157" lon="8.77622"><ele>171.28571428571428</ele><time>2026-05-05T07:00:36.558Z</time></trkpt><trkpt lat="44.7839838" lon="8.7762471"><ele>171.0</ele><time>2026-05-05T07:00:41.558Z</time></trkpt><trkpt lat="44.7840424" lon="8.7762848"><ele>170.99999999999997</ele><time>2026-05-05T07:00:47.558Z</time></trkpt><trkpt lat="44.7841143" lon="8.7763059"><ele>171.0</ele><time>2026-05-05T07:00:52.991Z</time></trkpt><trkpt lat="44.7841867" lon="8.7763366"><ele>171.0</ele><time>2026-05-05T07:00:57.111Z</time></trkpt><trkpt lat="44.7842528" lon="8.7763741"><ele>171.0</ele><time>2026-05-05T07:01:03.558Z</time></trkpt><trkpt lat="44.7843255" lon="8.7764029"><ele>171.0</ele><time>2026-05-05T07:01:08.558Z</time></trkpt><trkpt lat="44.7843922" lon="8.7764318"><ele>170.99999999999997</ele><time>2026-05-05T07:01:12.403Z</time></trkpt><trkpt lat="44.7844614" lon="8.7764581"><ele>171.0</ele><time>2026-05-05T07:01:18.047Z</time></trkpt><trkpt lat="44.784538" lon="8.7764851"><ele>171.14285714285714</ele><time>2026-05-05T07:01:22.669Z</time></trkpt><trkpt lat="44.7845984" lon="8.77652"><ele>171.28571428571428</ele><time>2026-05-05T07:01:27.557Z</time></trkpt><trkpt lat="44.7846671" lon="8.7765531"><ele>171.42857142857144</ele><time>2026-05-05T07:01:33.324Z</time></trkpt><trkpt lat="44.7847299" lon="8.7765843"><ele>171.57142857142856</ele><time>2026-05-05T07:01:38.528Z</time></trkpt><trkpt lat="44.7847977" lon="8.77662"><ele>171.71428571428572</ele><time>2026-05-05T07:01:43.563Z</time></trkpt><trkpt lat="44.7848702" lon="8.7766498"><ele>171.85714285714286</ele><time>2026-05-05T07:01:48.289Z</time></trkpt><trkpt lat="44.7849488" lon="8.7766856"><ele>172.0</ele><time>2026-05-05T07:01:53.558Z</time></trkpt><trkpt lat="44.785013" lon="8.7767155"><ele>172.00000000000003</ele><time>2026-05-05T07:01:57.558Z</time></trkpt><trkpt lat="44.7850833" lon="8.7767503"><ele>172.0</ele><time>2026-05-05T07:02:03.558Z</time></trkpt><trkpt lat="44.7851475" lon="8.7767803"><ele>172.0</ele><time>2026-05-05T07:02:08.558Z</time></trkpt><trkpt lat="44.7852159" lon="8.776814"><ele>172.0</ele><time>2026-05-05T07:02:13.558Z</time></trkpt><trkpt lat="44.7852846" lon="8.7768496"><ele>172.0</ele><time>2026-05-05T07:02:19.467Z</time></trkpt><trkpt lat="44.7853545" lon="8.7768777"><ele>172.00000000000003</ele><time>2026-05-05T07:02:24.51Z</time></trkpt><trkpt lat="44.7854224" lon="8.7769069"><ele>172.0</ele><time>2026-05-05T07:02:28.557Z</time></trkpt><trkpt lat="44.7854935" lon="8.7769452"><ele>171.85714285714286</ele><time>2026-05-05T07:02:34.558Z</time></trkpt><trkpt lat="44.7855658" lon="8.7769883"><ele>171.71428571428572</ele><time>2026-05-05T07:02:39.366Z</time></trkpt><trkpt lat="44.7856292" lon="8.7770165"><ele>171.57142857142856</ele><time>2026-05-05T07:02:44.946Z</time></trkpt><trkpt lat="44.7856926" lon="8.7770441"><ele>171.42857142857144</ele><time>2026-05-05T07:02:49.107Z</time></trkpt><trkpt lat="44.7857576" lon="8.7770803"><ele>171.28571428571428</ele><time>2026-05-05T07:02:54.308Z</time></trkpt><trkpt lat="44.7858207" lon="8.7771021"><ele>171.14285714285714</ele><time>2026-05-05T07:02:58.071Z</time></trkpt><trkpt lat="44.785878" lon="8.7771414"><ele>171.0</ele><time>2026-05-05T07:03:04.249Z</time></trkpt><trkpt lat="44.7859459" lon="8.7771638"><ele>170.7142857142857</ele><time>2026-05-05T07:03:08.407Z</time></trkpt><trkpt lat="44.7860142" lon="8.7771955"><ele>170.42857142857142</ele><time>2026-05-05T07:03:13.571Z</time></trkpt><trkpt lat="44.7860745" lon="8.7772271"><ele>170.14285714285714</ele><time>2026-05-05T07:03:18.557Z</time></trkpt><trkpt lat="44.786149" lon="8.7772627"><ele>169.85714285714283</ele><time>2026-05-05T07:03:23.451Z</time></trkpt><trkpt lat="44.7862207" lon="8.7772949"><ele>169.57142857142856</ele><time>2026-05-05T07:03:29.558Z</time></trkpt><trkpt lat="44.7862831" lon="8.7773315"><ele>169.28571428571428</ele><time>2026-05-05T07:03:34.558Z</time></trkpt><trkpt lat="44.7863556" lon="8.7773526"><ele>169.0</ele><time>2026-05-05T07:03:39.406Z</time></trkpt><trkpt lat="44.7864131" lon="8.7773934"><ele>169.0</ele><time>2026-05-05T07:03:43.558Z</time></trkpt><trkpt lat="44.7864791" lon="8.777416"><ele>169.0</ele><time>2026-05-05T07:03:48.558Z</time></trkpt><trkpt lat="44.7865409" lon="8.77745"><ele>169.0</ele><time>2026-05-05T07:03:53.558Z</time></trkpt><trkpt lat="44.786613" lon="8.7774837"><ele>169.0</ele><time>2026-05-05T07:03:58.556Z</time></trkpt><trkpt lat="44.7866829" lon="8.7775202"><ele>169.0</ele><time>2026-05-05T07:04:05.024Z</time></trkpt><trkpt lat="44.7867491" lon="8.7775522"><ele>169.0</ele><time>2026-05-05T07:04:09.107Z</time></trkpt><trkpt lat="44.7868107" lon="8.7775906"><ele>169.0</ele><time>2026-05-05T07:04:13.732Z</time></trkpt><trkpt lat="44.7868738" lon="8.7776377"><ele>169.16666666666669</ele><time>2026-05-05T07:04:19.311Z</time></trkpt><trkpt lat="44.7869444" lon="8.7776728"><ele>169.33333333333334</ele><time>2026-05-05T07:04:25.558Z</time></trkpt><trkpt lat="44.7870111" lon="8.7777041"><ele>169.5</ele><time>2026-05-05T07:04:29.449Z</time></trkpt><trkpt lat="44.7870845" lon="8.7777278"><ele>169.66666666666666</ele><time>2026-05-05T07:04:34.066Z</time></trkpt><trkpt lat="44.7871483" lon="8.7777572"><ele>169.83333333333331</ele><time>2026-05-05T07:04:38.684Z</time></trkpt><trkpt lat="44.7872258" lon="8.7777923"><ele>170.0</ele><time>2026-05-05T07:04:44.558Z</time></trkpt><trkpt lat="44.7873015" lon="8.7778321"><ele>170.0</ele><time>2026-05-05T07:04:50.558Z</time></trkpt><trkpt lat="44.7873666" lon="8.7778611"><ele>170.0</ele><time>2026-05-05T07:04:54.558Z</time></trkpt><trkpt lat="44.7874268" lon="8.7778935"><ele>170.0</ele><time>2026-05-05T07:04:59.466Z</time></trkpt><trkpt lat="44.7874913" lon="8.7779164"><ele>170.0</ele><time>2026-05-05T07:05:04.489Z</time></trkpt><trkpt lat="44.7875538" lon="8.7779523"><ele>170.0</ele><time>2026-05-05T07:05:09.127Z</time></trkpt><trkpt lat="44.7876151" lon="8.7779842"><ele>170.0</ele><time>2026-05-05T07:05:14.25Z</time></trkpt><trkpt lat="44.7876925" lon="8.7780302"><ele>170.0</ele><time>2026-05-05T07:05:18.947Z</time></trkpt><trkpt lat="44.7877517" lon="8.7780616"><ele>169.85714285714286</ele><time>2026-05-05T07:05:23.028Z</time></trkpt><trkpt lat="44.7878189" lon="8.7780859"><ele>169.7142857142857</ele><time>2026-05-05T07:05:27.644Z</time></trkpt><trkpt lat="44.7878784" lon="8.7781167"><ele>169.57142857142856</ele><time>2026-05-05T07:05:32.557Z</time></trkpt><trkpt lat="44.7879425" lon="8.7781384"><ele>169.42857142857144</ele><time>2026-05-05T07:05:37.464Z</time></trkpt><trkpt lat="44.7880087" lon="8.7781699"><ele>169.28571428571428</ele><time>2026-05-05T07:05:42.556Z</time></trkpt><trkpt lat="44.7880781" lon="8.7782027"><ele>169.14285714285714</ele><time>2026-05-05T07:05:46.558Z</time></trkpt><trkpt lat="44.7881396" lon="8.7782327"><ele>169.0</ele><time>2026-05-05T07:05:51.558Z</time></trkpt><trkpt lat="44.7882143" lon="8.7782666"><ele>169.0</ele><time>2026-05-05T07:05:56.558Z</time></trkpt><trkpt lat="44.7882827" lon="8.7782934"><ele>169.0</ele><time>2026-05-05T07:06:01.558Z</time></trkpt><trkpt lat="44.7883548" lon="8.7783361"><ele>169.0</ele><time>2026-05-05T07:06:06.388Z</time></trkpt><trkpt lat="44.7884248" lon="8.7783711"><ele>169.0</ele><time>2026-05-05T07:06:10.558Z</time></trkpt><trkpt lat="44.7884948" lon="8.7783957"><ele>169.0</ele><time>2026-05-05T07:06:15.558Z</time></trkpt><trkpt lat="44.7885618" lon="8.7784316"><ele>169.0</ele><time>2026-05-05T07:06:21.557Z</time></trkpt><trkpt lat="44.788637" lon="8.7784617"><ele>169.0</ele><time>2026-05-05T07:06:26.558Z</time></trkpt><trkpt lat="44.788709" lon="8.7784814"><ele>169.0</ele><time>2026-05-05T07:06:30.558Z</time></trkpt><trkpt lat="44.7887735" lon="8.7785111"><ele>169.0</ele><time>2026-05-05T07:06:35.352Z</time></trkpt><trkpt lat="44.7888457" lon="8.7785533"><ele>169.0</ele><time>2026-05-05T07:06:40.911Z</time></trkpt><trkpt lat="44.7889109" lon="8.7785927"><ele>169.0</ele><time>2026-05-05T07:06:47.325Z</time></trkpt><trkpt lat="44.7889888" lon="8.7786317"><ele>169.0</ele><time>2026-05-05T07:06:51.558Z</time></trkpt><trkpt lat="44.7890457" lon="8.7786702"><ele>169.0</ele><time>2026-05-05T07:06:55.557Z</time></trkpt><trkpt lat="44.7891217" lon="8.7787014"><ele>169.0</ele><time>2026-05-05T07:07:00.558Z</time></trkpt><trkpt lat="44.7891889" lon="8.7787401"><ele>168.66666666666669</ele><time>2026-05-05T07:07:06.189Z</time></trkpt><trkpt lat="44.7892726" lon="8.778783"><ele>168.33333333333334</ele><time>2026-05-05T07:07:11.749Z</time></trkpt><trkpt lat="44.7893462" lon="8.7788188"><ele>168.0</ele><time>2026-05-05T07:07:17.557Z</time></trkpt><trkpt lat="44.7894205" lon="8.7788579"><ele>167.66666666666666</ele><time>2026-05-05T07:07:23.248Z</time></trkpt><trkpt lat="44.7894947" lon="8.7788864"><ele>167.33333333333331</ele><time>2026-05-05T07:07:27.369Z</time></trkpt><trkpt lat="44.7895697" lon="8.778928"><ele>167.0</ele><time>2026-05-05T07:07:34.248Z</time></trkpt><trkpt lat="44.7896419" lon="8.77896"><ele>167.0</ele><time>2026-05-05T07:07:38.33Z</time></trkpt><trkpt lat="44.789708" lon="8.7789879"><ele>167.0</ele><time>2026-05-05T07:07:42.451Z</time></trkpt><trkpt lat="44.789773" lon="8.7790269"><ele>167.0</ele><time>2026-05-05T07:07:48.558Z</time></trkpt><trkpt lat="44.7898331" lon="8.7790597"><ele>167.0</ele><time>2026-05-05T07:07:53.559Z</time></trkpt><trkpt lat="44.7898971" lon="8.7790944"><ele>167.0</ele><time>2026-05-05T07:07:58.487Z</time></trkpt><trkpt lat="44.7899562" lon="8.7791433"><ele>167.0</ele><time>2026-05-05T07:08:03.559Z</time></trkpt><trkpt lat="44.7900208" lon="8.7791764"><ele>167.0</ele><time>2026-05-05T07:08:07.559Z</time></trkpt><trkpt lat="44.7900902" lon="8.7792056"><ele>167.0</ele><time>2026-05-05T07:08:12.558Z</time></trkpt><trkpt lat="44.7901578" lon="8.7792336"><ele>167.0</ele><time>2026-05-05T07:08:17.559Z</time></trkpt><trkpt lat="44.790228" lon="8.7792509"><ele>167.0</ele><time>2026-05-05T07:08:21.532Z</time></trkpt><trkpt lat="44.7902902" lon="8.7792786"><ele>167.0</ele><time>2026-05-05T07:08:25.345Z</time></trkpt><trkpt lat="44.7903548" lon="8.7793125"><ele>167.0</ele><time>2026-05-05T07:08:30.559Z</time></trkpt><trkpt lat="44.7904161" lon="8.7793466"><ele>167.0</ele><time>2026-05-05T07:08:34.559Z</time></trkpt><trkpt lat="44.7903565" lon="8.7792927"><ele>167.0</ele><time>2026-05-05T07:08:47.089Z</time></trkpt><trkpt lat="44.7902939" lon="8.7792514"><ele>167.0</ele><time>2026-05-05T07:08:51.269Z</time></trkpt><trkpt lat="44.790229" lon="8.7792225"><ele>167.0</ele><time>2026-05-05T07:08:55.559Z</time></trkpt><trkpt lat="44.7901665" lon="8.7791831"><ele>167.0</ele><time>2026-05-05T07:08:59.558Z</time></trkpt><trkpt lat="44.7901075" lon="8.779147"><ele>167.0</ele><time>2026-05-05T07:09:03.559Z</time></trkpt><trkpt lat="44.7900386" lon="8.7791174"><ele>167.0</ele><time>2026-05-05T07:09:11.353Z</time></trkpt><trkpt lat="44.7899717" lon="8.779085"><ele>167.0</ele><time>2026-05-05T07:09:15.168Z</time></trkpt><trkpt lat="44.7899092" lon="8.7790686"><ele>167.0</ele><time>2026-05-05T07:09:19.387Z</time></trkpt><trkpt lat="44.7898406" lon="8.7790399"><ele>167.0</ele><time>2026-05-05T07:09:24.51Z</time></trkpt><trkpt lat="44.7897737" lon="8.779011"><ele>167.0</ele><time>2026-05-05T07:09:29.56Z</time></trkpt><trkpt lat="44.7897076" lon="8.77898"><ele>167.0</ele><time>2026-05-05T07:09:34.421Z</time></trkpt><trkpt lat="44.7896501" lon="8.778943"><ele>167.0</ele><time>2026-05-05T07:09:39.108Z</time></trkpt><trkpt lat="44.7895881" lon="8.77891"><ele>167.0</ele><time>2026-05-05T07:09:44.283Z</time></trkpt><trkpt lat="44.7895182" lon="8.7788774"><ele>167.0</ele><time>2026-05-05T07:09:49.992Z</time></trkpt><trkpt lat="44.7894544" lon="8.7788563"><ele>167.0</ele><time>2026-05-05T07:09:55.21Z</time></trkpt><trkpt lat="44.7893867" lon="8.7788202"><ele>167.0</ele><time>2026-05-05T07:10:00.847Z</time></trkpt><trkpt lat="44.789319" lon="8.7787796"><ele>167.0</ele><time>2026-05-05T07:10:06.558Z</time></trkpt><trkpt lat="44.7892567" lon="8.7787548"><ele>167.0</ele><time>2026-05-05T07:10:11.559Z</time></trkpt><trkpt lat="44.7891974" lon="8.7787219"><ele>167.0</ele><time>2026-05-05T07:10:16.484Z</time></trkpt><trkpt lat="44.7891356" lon="8.7786988"><ele>167.0</ele><time>2026-05-05T07:10:21.559Z</time></trkpt><trkpt lat="44.7890708" lon="8.778665"><ele>167.0</ele><time>2026-05-05T07:10:26.559Z</time></trkpt><trkpt lat="44.7890087" lon="8.7786448"><ele>167.0</ele><time>2026-05-05T07:10:36.605Z</time></trkpt><trkpt lat="44.7889361" lon="8.7785951"><ele>167.0</ele><time>2026-05-05T07:10:41.558Z</time></trkpt><trkpt lat="44.7888742" lon="8.7785692"><ele>167.0</ele><time>2026-05-05T07:10:46.489Z</time></trkpt><trkpt lat="44.7888106" lon="8.7785374"><ele>167.0</ele><time>2026-05-05T07:10:51.559Z</time></trkpt><trkpt lat="44.7887477" lon="8.7784993"><ele>167.0</ele><time>2026-05-05T07:10:56.571Z</time></trkpt><trkpt lat="44.7886773" lon="8.7784749"><ele>167.0</ele><time>2026-05-05T07:11:02.287Z</time></trkpt><trkpt lat="44.7886046" lon="8.7784477"><ele>167.0</ele><time>2026-05-05T07:11:08.15Z</time></trkpt><trkpt lat="44.7885373" lon="8.7784173"><ele>167.0</ele><time>2026-05-05T07:11:13.349Z</time></trkpt><trkpt lat="44.7884781" lon="8.7783838"><ele>167.28571428571428</ele><time>2026-05-05T07:11:18.125Z</time></trkpt><trkpt lat="44.7884154" lon="8.7783545"><ele>167.57142857142858</ele><time>2026-05-05T07:11:23.009Z</time></trkpt><trkpt lat="44.7883569" lon="8.7783136"><ele>167.85714285714286</ele><time>2026-05-05T07:11:28.188Z</time></trkpt><trkpt lat="44.7882974" lon="8.778275"><ele>168.14285714285714</ele><time>2026-05-05T07:11:33.559Z</time></trkpt><trkpt lat="44.7882257" lon="8.7782428"><ele>168.42857142857142</ele><time>2026-05-05T07:11:39.56Z</time></trkpt><trkpt lat="44.7881597" lon="8.7782204"><ele>168.71428571428572</ele><time>2026-05-05T07:11:44.367Z</time></trkpt><trkpt lat="44.788093" lon="8.7781895"><ele>169.0</ele><time>2026-05-05T07:11:49.623Z</time></trkpt><trkpt lat="44.7880341" lon="8.7781557"><ele>169.0</ele><time>2026-05-05T07:11:54.559Z</time></trkpt><trkpt lat="44.7879707" lon="8.7781243"><ele>169.0</ele><time>2026-05-05T07:11:59.568Z</time></trkpt><trkpt lat="44.7879092" lon="8.7780964"><ele>169.0</ele><time>2026-05-05T07:12:04.325Z</time></trkpt><trkpt lat="44.7878463" lon="8.7780717"><ele>169.0</ele><time>2026-05-05T07:12:09.559Z</time></trkpt><trkpt lat="44.7877767" lon="8.7780409"><ele>169.0</ele><time>2026-05-05T07:12:15.407Z</time></trkpt><trkpt lat="44.787707" lon="8.7780069"><ele>169.0</ele><time>2026-05-05T07:12:21.331Z</time></trkpt><trkpt lat="44.7876397" lon="8.7779829"><ele>169.0</ele><time>2026-05-05T07:12:26.846Z</time></trkpt><trkpt lat="44.7875704" lon="8.7779486"><ele>169.14285714285714</ele><time>2026-05-05T07:12:32.567Z</time></trkpt><trkpt lat="44.7875067" lon="8.7779179"><ele>169.28571428571428</ele><time>2026-05-05T07:12:37.472Z</time></trkpt><trkpt lat="44.7874477" lon="8.7778827"><ele>169.42857142857144</ele><time>2026-05-05T07:12:42.559Z</time></trkpt><trkpt lat="44.7873897" lon="8.7778396"><ele>169.57142857142856</ele><time>2026-05-05T07:12:48.559Z</time></trkpt><trkpt lat="44.7873154" lon="8.7778142"><ele>169.7142857142857</ele><time>2026-05-05T07:13:03.553Z</time></trkpt><trkpt lat="44.7872443" lon="8.7777667"><ele>169.85714285714286</ele><time>2026-05-05T07:13:08.492Z</time></trkpt><trkpt lat="44.7871769" lon="8.7777505"><ele>170.0</ele><time>2026-05-05T07:13:13.559Z</time></trkpt><trkpt lat="44.7871112" lon="8.7777318"><ele>170.0</ele><time>2026-05-05T07:13:19.284Z</time></trkpt><trkpt lat="44.7870283" lon="8.7777187"><ele>170.0</ele><time>2026-05-05T07:13:24.408Z</time></trkpt><trkpt lat="44.7869652" lon="8.7776764"><ele>170.0</ele><time>2026-05-05T07:13:28.559Z</time></trkpt><trkpt lat="44.7869066" lon="8.7776398"><ele>170.0</ele><time>2026-05-05T07:13:33.403Z</time></trkpt><trkpt lat="44.7868309" lon="8.7776016"><ele>170.0</ele><time>2026-05-05T07:13:40.559Z</time></trkpt><trkpt lat="44.7867665" lon="8.7775553"><ele>170.0</ele><time>2026-05-05T07:13:44.566Z</time></trkpt><trkpt lat="44.7867056" lon="8.7775132"><ele>170.0</ele><time>2026-05-05T07:13:48.559Z</time></trkpt><trkpt lat="44.7866368" lon="8.7774732"><ele>169.85714285714286</ele><time>2026-05-05T07:13:53.303Z</time></trkpt><trkpt lat="44.7865723" lon="8.7774423"><ele>169.7142857142857</ele><time>2026-05-05T07:13:57.949Z</time></trkpt><trkpt lat="44.7864979" lon="8.7774098"><ele>169.57142857142856</ele><time>2026-05-05T07:14:03.442Z</time></trkpt><trkpt lat="44.786433" lon="8.7773845"><ele>169.42857142857144</ele><time>2026-05-05T07:14:09.469Z</time></trkpt><trkpt lat="44.7863645" lon="8.7773517"><ele>169.28571428571428</ele><time>2026-05-05T07:14:13.224Z</time></trkpt><trkpt lat="44.7863025" lon="8.777329"><ele>169.14285714285714</ele><time>2026-05-05T07:14:19.15Z</time></trkpt><trkpt lat="44.7862445" lon="8.7772923"><ele>169.0</ele><time>2026-05-05T07:14:22.408Z</time></trkpt><trkpt lat="44.7861776" lon="8.7772553"><ele>169.0</ele><time>2026-05-05T07:14:26.491Z</time></trkpt><trkpt lat="44.7861128" lon="8.777238"><ele>169.0</ele><time>2026-05-05T07:14:31.559Z</time></trkpt><trkpt lat="44.7860457" lon="8.7772038"><ele>169.0</ele><time>2026-05-05T07:14:35.559Z</time></trkpt><trkpt lat="44.7859772" lon="8.7771676"><ele>169.0</ele><time>2026-05-05T07:14:40.558Z</time></trkpt><trkpt lat="44.7859051" lon="8.7771294"><ele>169.0</ele><time>2026-05-05T07:14:45.559Z</time></trkpt><trkpt lat="44.7858371" lon="8.7770952"><ele>169.0</ele><time>2026-05-05T07:14:50.37Z</time></trkpt><trkpt lat="44.7857683" lon="8.7770799"><ele>169.0</ele><time>2026-05-05T07:14:55.988Z</time></trkpt><trkpt lat="44.7857099" lon="8.7770407"><ele>169.14285714285714</ele><time>2026-05-05T07:14:59.586Z</time></trkpt><trkpt lat="44.7856408" lon="8.7770127"><ele>169.28571428571428</ele><time>2026-05-05T07:15:05.559Z</time></trkpt><trkpt lat="44.785576" lon="8.7769709"><ele>169.42857142857144</ele><time>2026-05-05T07:15:09.559Z</time></trkpt><trkpt lat="44.7855128" lon="8.7769439"><ele>169.57142857142856</ele><time>2026-05-05T07:15:15.243Z</time></trkpt><trkpt lat="44.7854519" lon="8.7769088"><ele>169.7142857142857</ele><time>2026-05-05T07:15:19.85Z</time></trkpt><trkpt lat="44.7853852" lon="8.7768879"><ele>169.85714285714286</ele><time>2026-05-05T07:15:25.002Z</time></trkpt><trkpt lat="44.7853251" lon="8.7768597"><ele>170.0</ele><time>2026-05-05T07:15:28.727Z</time></trkpt><trkpt lat="44.7852535" lon="8.7768218"><ele>170.0</ele><time>2026-05-05T07:15:33.559Z</time></trkpt><trkpt lat="44.7851927" lon="8.7767963"><ele>170.0</ele><time>2026-05-05T07:15:38.389Z</time></trkpt><trkpt lat="44.7851318" lon="8.776769"><ele>170.0</ele><time>2026-05-05T07:15:42.082Z</time></trkpt><trkpt lat="44.7850647" lon="8.7767337"><ele>170.0</ele><time>2026-05-05T07:15:46.689Z</time></trkpt><trkpt lat="44.7850058" lon="8.7766971"><ele>170.0</ele><time>2026-05-05T07:15:50.383Z</time></trkpt><trkpt lat="44.7849308" lon="8.7766732"><ele>170.0</ele><time>2026-05-05T07:15:55.964Z</time></trkpt><trkpt lat="44.7848468" lon="8.776638"><ele>170.0</ele><time>2026-05-05T07:16:03.371Z</time></trkpt><trkpt lat="44.7847748" lon="8.7766009"><ele>170.14285714285714</ele><time>2026-05-05T07:16:07.56Z</time></trkpt><trkpt lat="44.7847103" lon="8.7765835"><ele>170.28571428571428</ele><time>2026-05-05T07:16:12.56Z</time></trkpt><trkpt lat="44.7846437" lon="8.7765469"><ele>170.42857142857142</ele><time>2026-05-05T07:16:17.56Z</time></trkpt><trkpt lat="44.7845621" lon="8.7765154"><ele>170.57142857142856</ele><time>2026-05-05T07:16:21.503Z</time></trkpt><trkpt lat="44.7844885" lon="8.7764831"><ele>170.71428571428572</ele><time>2026-05-05T07:16:30.21Z</time></trkpt><trkpt lat="44.7844185" lon="8.7764527"><ele>170.85714285714283</ele><time>2026-05-05T07:16:34.848Z</time></trkpt><trkpt lat="44.7843556" lon="8.7764159"><ele>171.0</ele><time>2026-05-05T07:16:38.521Z</time></trkpt><trkpt lat="44.7842851" lon="8.7763678"><ele>170.99999999999997</ele><time>2026-05-05T07:16:42.207Z</time></trkpt><trkpt lat="44.7842118" lon="8.7763356"><ele>171.0</ele><time>2026-05-05T07:16:46.822Z</time></trkpt><trkpt lat="44.7841415" lon="8.7763125"><ele>171.0</ele><time>2026-05-05T07:16:51.45Z</time></trkpt><trkpt lat="44.7840668" lon="8.7762906"><ele>171.0</ele><time>2026-05-05T07:16:57.942Z</time></trkpt><trkpt lat="44.7840021" lon="8.7762693"><ele>171.0</ele><time>2026-05-05T07:17:02.594Z</time></trkpt><trkpt lat="44.7839421" lon="8.7762346"><ele>170.99999999999997</ele><time>2026-05-05T07:17:06.304Z</time></trkpt><trkpt lat="44.7838691" lon="8.7762056"><ele>171.0</ele><time>2026-05-05T07:17:10.942Z</time></trkpt><trkpt lat="44.7837968" lon="8.7761818"><ele>170.99999999999997</ele><time>2026-05-05T07:17:15.589Z</time></trkpt><trkpt lat="44.7837256" lon="8.7761566"><ele>171.0</ele><time>2026-05-05T07:17:20.56Z</time></trkpt><trkpt lat="44.7836579" lon="8.7761273"><ele>171.0</ele><time>2026-05-05T07:17:25.561Z</time></trkpt><trkpt lat="44.7835892" lon="8.7761031"><ele>171.0</ele><time>2026-05-05T07:17:30.343Z</time></trkpt><trkpt lat="44.783527" lon="8.7760818"><ele>171.0</ele><time>2026-05-05T07:17:34.524Z</time></trkpt><trkpt lat="44.7834567" lon="8.7760483"><ele>170.99999999999997</ele><time>2026-05-05T07:17:39.559Z</time></trkpt><trkpt lat="44.7833901" lon="8.7760189"><ele>171.0</ele><time>2026-05-05T07:17:44.226Z</time></trkpt><trkpt lat="44.783318" lon="8.775992"><ele>171.28571428571428</ele><time>2026-05-05T07:17:49.331Z</time></trkpt><trkpt lat="44.7832463" lon="8.7759678"><ele>171.57142857142856</ele><time>2026-05-05T07:17:54.404Z</time></trkpt><trkpt lat="44.783182" lon="8.7759431"><ele>171.85714285714283</ele><time>2026-05-05T07:17:59.009Z</time></trkpt><trkpt lat="44.7831167" lon="8.7759254"><ele>172.14285714285714</ele><time>2026-05-05T07:18:03.269Z</time></trkpt><trkpt lat="44.7830455" lon="8.7759036"><ele>172.42857142857144</ele><time>2026-05-05T07:18:08.323Z</time></trkpt><trkpt lat="44.7829839" lon="8.7758816"><ele>172.7142857142857</ele><time>2026-05-05T07:18:12.97Z</time></trkpt><trkpt lat="44.7829193" lon="8.7758627"><ele>173.0</ele><time>2026-05-05T07:18:17.728Z</time></trkpt><trkpt lat="44.7828503" lon="8.7758445"><ele>173.0</ele><time>2026-05-05T07:18:22.483Z</time></trkpt><trkpt lat="44.7827881" lon="8.7758249"><ele>173.0</ele><time>2026-05-05T07:18:27.507Z</time></trkpt><trkpt lat="44.7827267" lon="8.7758038"><ele>173.0</ele><time>2026-05-05T07:18:59.294Z</time></trkpt><trkpt lat="44.7826551" lon="8.775788"><ele>173.0</ele><time>2026-05-05T07:19:06.277Z</time></trkpt><trkpt lat="44.7825884" lon="8.7757608"><ele>173.0</ele><time>2026-05-05T07:19:11.11Z</time></trkpt><trkpt lat="44.7825249" lon="8.7757451"><ele>173.0</ele><time>2026-05-05T07:19:16.375Z</time></trkpt><trkpt lat="44.7824585" lon="8.7757279"><ele>173.0</ele><time>2026-05-05T07:19:21.21Z</time></trkpt><trkpt lat="44.7823874" lon="8.7757015"><ele>173.42857142857142</ele><time>2026-05-05T07:19:27.01Z</time></trkpt><trkpt lat="44.7823164" lon="8.775679"><ele>173.85714285714286</ele><time>2026-05-05T07:19:32.77Z</time></trkpt><trkpt lat="44.782249" lon="8.775659"><ele>174.28571428571428</ele><time>2026-05-05T07:19:38.055Z</time></trkpt><trkpt lat="44.7821769" lon="8.7756425"><ele>174.71428571428572</ele><time>2026-05-05T07:19:43.832Z</time></trkpt><trkpt lat="44.7821047" lon="8.7756222"><ele>175.14285714285714</ele><time>2026-05-05T07:19:49.632Z</time></trkpt><trkpt lat="44.7820315" lon="8.7756034"><ele>175.57142857142858</ele><time>2026-05-05T07:19:55.371Z</time></trkpt><trkpt lat="44.7819684" lon="8.7755857"><ele>176.0</ele><time>2026-05-05T07:20:00.56Z</time></trkpt><trkpt lat="44.7818943" lon="8.775572"><ele>175.71428571428572</ele><time>2026-05-05T07:20:06.394Z</time></trkpt><trkpt lat="44.7818218" lon="8.7755531"><ele>175.42857142857142</ele><time>2026-05-05T07:20:12.133Z</time></trkpt><trkpt lat="44.7817525" lon="8.7755365"><ele>175.14285714285714</ele><time>2026-05-05T07:20:17.479Z</time></trkpt><trkpt lat="44.781677" lon="8.775521"><ele>174.85714285714286</ele><time>2026-05-05T07:20:23.436Z</time></trkpt><trkpt lat="44.7815978" lon="8.7755153"><ele>174.57142857142858</ele><time>2026-05-05T07:20:43.56Z</time></trkpt><trkpt lat="44.7815291" lon="8.7755075"><ele>174.28571428571428</ele><time>2026-05-05T07:20:47.496Z</time></trkpt><trkpt lat="44.7814655" lon="8.7754902"><ele>174.0</ele><time>2026-05-05T07:20:51.259Z</time></trkpt><trkpt lat="44.7813911" lon="8.7754706"><ele>174.0</ele><time>2026-05-05T07:20:55.976Z</time></trkpt><trkpt lat="44.7813276" lon="8.7754515"><ele>174.0</ele><time>2026-05-05T07:21:00.274Z</time></trkpt><trkpt lat="44.7812505" lon="8.7754406"><ele>174.0</ele><time>2026-05-05T07:21:05.56Z</time></trkpt><trkpt lat="44.7811768" lon="8.7754292"><ele>174.0</ele><time>2026-05-05T07:21:10.512Z</time></trkpt><trkpt lat="44.7811033" lon="8.77543"><ele>174.0</ele><time>2026-05-05T07:21:16.093Z</time></trkpt><trkpt lat="44.7810395" lon="8.7754073"><ele>174.0</ele><time>2026-05-05T07:21:19.896Z</time></trkpt><trkpt lat="44.7809636" lon="8.7753974"><ele>174.0</ele><time>2026-05-05T07:21:25.078Z</time></trkpt><trkpt lat="44.780889" lon="8.7753856"><ele>174.14285714285714</ele><time>2026-05-05T07:21:30.331Z</time></trkpt><trkpt lat="44.7808224" lon="8.7753832"><ele>174.28571428571428</ele><time>2026-05-05T07:21:35.08Z</time></trkpt><trkpt lat="44.7807476" lon="8.7753742"><ele>174.42857142857144</ele><time>2026-05-05T07:21:40.072Z</time></trkpt><trkpt lat="44.7806795" lon="8.7753665"><ele>174.57142857142856</ele><time>2026-05-05T07:21:44.7Z</time></trkpt><trkpt lat="44.7805984" lon="8.7753597"><ele>174.71428571428572</ele><time>2026-05-05T07:21:50.281Z</time></trkpt><trkpt lat="44.7805304" lon="8.7753476"><ele>174.85714285714286</ele><time>2026-05-05T07:21:55.88Z</time></trkpt><trkpt lat="44.7804655" lon="8.7753445"><ele>175.0</ele><time>2026-05-05T07:22:00.558Z</time></trkpt><trkpt lat="44.7803917" lon="8.7753377"><ele>175.0</ele><time>2026-05-05T07:22:05.56Z</time></trkpt><trkpt lat="44.7803156" lon="8.7753296"><ele>175.0</ele><time>2026-05-05T07:22:10.297Z</time></trkpt><trkpt lat="44.7802451" lon="8.7753322"><ele>175.0</ele><time>2026-05-05T07:22:15.331Z</time></trkpt><trkpt lat="44.780168" lon="8.7753227"><ele>175.0</ele><time>2026-05-05T07:22:19.492Z</time></trkpt><trkpt lat="44.7800993" lon="8.775324"><ele>175.0</ele><time>2026-05-05T07:22:24.497Z</time></trkpt><trkpt lat="44.7800297" lon="8.7753106"><ele>175.0</ele><time>2026-05-05T07:22:28.56Z</time></trkpt><trkpt lat="44.7799613" lon="8.7753011"><ele>175.0</ele><time>2026-05-05T07:22:32.272Z</time></trkpt><trkpt lat="44.7798949" lon="8.7752972"><ele>175.14285714285714</ele><time>2026-05-05T07:22:36.56Z</time></trkpt><trkpt lat="44.7798221" lon="8.7752925"><ele>175.28571428571428</ele><time>2026-05-05T07:22:41.317Z</time></trkpt><trkpt lat="44.7797579" lon="8.775298"><ele>175.42857142857144</ele><time>2026-05-05T07:22:45.56Z</time></trkpt><trkpt lat="44.7796888" lon="8.7752981"><ele>175.57142857142856</ele><time>2026-05-05T07:22:51.336Z</time></trkpt><trkpt lat="44.7796114" lon="8.7752916"><ele>175.71428571428572</ele><time>2026-05-05T07:22:54.514Z</time></trkpt><trkpt lat="44.7795417" lon="8.7752886"><ele>175.85714285714286</ele><time>2026-05-05T07:22:58.574Z</time></trkpt><trkpt lat="44.7794675" lon="8.7752841"><ele>176.0</ele><time>2026-05-05T07:23:04.559Z</time></trkpt><trkpt lat="44.7794029" lon="8.7752796"><ele>176.28571428571428</ele><time>2026-05-05T07:23:08.578Z</time></trkpt><trkpt lat="44.7793294" lon="8.7752875"><ele>176.57142857142856</ele><time>2026-05-05T07:23:12.559Z</time></trkpt><trkpt lat="44.779249" lon="8.7752795"><ele>176.85714285714283</ele><time>2026-05-05T07:23:18.135Z</time></trkpt><trkpt lat="44.7791805" lon="8.775277"><ele>177.14285714285714</ele><time>2026-05-05T07:23:22.673Z</time></trkpt><trkpt lat="44.7791151" lon="8.7752798"><ele>177.42857142857142</ele><time>2026-05-05T07:23:26.339Z</time></trkpt><trkpt lat="44.7790351" lon="8.7752824"><ele>177.7142857142857</ele><time>2026-05-05T07:23:32.334Z</time></trkpt><trkpt lat="44.7789631" lon="8.775286"><ele>178.0</ele><time>2026-05-05T07:23:37.935Z</time></trkpt><trkpt lat="44.7788949" lon="8.7752861"><ele>177.99999999999997</ele><time>2026-05-05T07:23:42.919Z</time></trkpt><trkpt lat="44.7788242" lon="8.7752759"><ele>178.0</ele><time>2026-05-05T07:23:46.633Z</time></trkpt><trkpt lat="44.7787563" lon="8.7752809"><ele>178.0</ele><time>2026-05-05T07:23:52.193Z</time></trkpt><trkpt lat="44.7786916" lon="8.7752789"><ele>178.0</ele><time>2026-05-05T07:23:56.939Z</time></trkpt><trkpt lat="44.7786138" lon="8.7752971"><ele>178.0</ele><time>2026-05-05T07:24:01.736Z</time></trkpt><trkpt lat="44.7785487" lon="8.7753513"><ele>177.99999999999997</ele><time>2026-05-05T07:24:07.56Z</time></trkpt><trkpt lat="44.7784793" lon="8.775407"><ele>178.0</ele><time>2026-05-05T07:24:12.56Z</time></trkpt><trkpt lat="44.7784018" lon="8.7754416"><ele>178.14285714285714</ele><time>2026-05-05T07:24:18.376Z</time></trkpt><trkpt lat="44.7783369" lon="8.7754621"><ele>178.28571428571428</ele><time>2026-05-05T07:24:23.49Z</time></trkpt><trkpt lat="44.7782721" lon="8.775473"><ele>178.42857142857144</ele><time>2026-05-05T07:24:27.56Z</time></trkpt><trkpt lat="44.7781981" lon="8.7754885"><ele>178.57142857142856</ele><time>2026-05-05T07:24:32.338Z</time></trkpt><trkpt lat="44.7781442" lon="8.775546"><ele>178.71428571428572</ele><time>2026-05-05T07:24:36.975Z</time></trkpt><trkpt lat="44.7781042" lon="8.7756177"><ele>178.85714285714286</ele><time>2026-05-05T07:24:40.561Z</time></trkpt><trkpt lat="44.7780672" lon="8.7756939"><ele>179.0</ele><time>2026-05-05T07:24:44.353Z</time></trkpt><trkpt lat="44.7780393" lon="8.7757897"><ele>179.00000000000003</ele><time>2026-05-05T07:24:48.959Z</time></trkpt><trkpt lat="44.7779952" lon="8.7758765"><ele>179.0</ele><time>2026-05-05T07:24:54.519Z</time></trkpt><trkpt lat="44.7779476" lon="8.7759707"><ele>179.0</ele><time>2026-05-05T07:25:01.561Z</time></trkpt><trkpt lat="44.7779035" lon="8.7760558"><ele>179.0</ele><time>2026-05-05T07:25:06.458Z</time></trkpt><trkpt lat="44.7778576" lon="8.7761291"><ele>179.0</ele><time>2026-05-05T07:25:11.032Z</time></trkpt><trkpt lat="44.7778135" lon="8.77622"><ele>179.00000000000003</ele><time>2026-05-05T07:25:17.496Z</time></trkpt><trkpt lat="44.7777714" lon="8.776287"><ele>179.0</ele><time>2026-05-05T07:25:20.561Z</time></trkpt><trkpt lat="44.7777275" lon="8.7763803"><ele>178.85714285714286</ele><time>2026-05-05T07:25:26.561Z</time></trkpt><trkpt lat="44.7776782" lon="8.7764659"><ele>178.71428571428572</ele><time>2026-05-05T07:25:32.574Z</time></trkpt><trkpt lat="44.7776328" lon="8.7765554"><ele>178.57142857142856</ele><time>2026-05-05T07:25:36.561Z</time></trkpt><trkpt lat="44.7775965" lon="8.7766281"><ele>178.42857142857144</ele><time>2026-05-05T07:25:41.561Z</time></trkpt><trkpt lat="44.7775548" lon="8.7767119"><ele>178.28571428571428</ele><time>2026-05-05T07:25:46.561Z</time></trkpt><trkpt lat="44.7775183" lon="8.7767884"><ele>178.14285714285714</ele><time>2026-05-05T07:25:50.561Z</time></trkpt><trkpt lat="44.7774822" lon="8.7768695"><ele>178.0</ele><time>2026-05-05T07:25:54.561Z</time></trkpt><trkpt lat="44.7774324" lon="8.7769505"><ele>177.99999999999997</ele><time>2026-05-05T07:26:01.513Z</time></trkpt><trkpt lat="44.7773886" lon="8.7770236"><ele>178.0</ele><time>2026-05-05T07:26:05.219Z</time></trkpt><trkpt lat="44.7773513" lon="8.7771063"><ele>178.0</ele><time>2026-05-05T07:26:10.361Z</time></trkpt><trkpt lat="44.7773012" lon="8.777196"><ele>178.0</ele><time>2026-05-05T07:26:15.437Z</time></trkpt><trkpt lat="44.777259" lon="8.7772813"><ele>178.0</ele><time>2026-05-05T07:26:21.571Z</time></trkpt><trkpt lat="44.7772148" lon="8.7773738"><ele>177.99999999999997</ele><time>2026-05-05T07:26:26.561Z</time></trkpt><trkpt lat="44.7771813" lon="8.7774534"><ele>178.0</ele><time>2026-05-05T07:26:31.561Z</time></trkpt><trkpt lat="44.7771299" lon="8.7775473"><ele>177.99999999999997</ele><time>2026-05-05T07:26:38.561Z</time></trkpt><trkpt lat="44.7771004" lon="8.7776308"><ele>178.0</ele><time>2026-05-05T07:26:47.436Z</time></trkpt><trkpt lat="44.7770534" lon="8.7777007"><ele>178.0</ele><time>2026-05-05T07:26:52.134Z</time></trkpt><trkpt lat="44.7770053" lon="8.7777958"><ele>178.0</ele><time>2026-05-05T07:26:57.338Z</time></trkpt><trkpt lat="44.776968" lon="8.7778721"><ele>178.0</ele><time>2026-05-05T07:27:02.562Z</time></trkpt><trkpt lat="44.7769103" lon="8.7779612"><ele>177.99999999999997</ele><time>2026-05-05T07:27:08.518Z</time></trkpt><trkpt lat="44.7768638" lon="8.7780255"><ele>178.0</ele><time>2026-05-05T07:27:11.561Z</time></trkpt><trkpt lat="44.7767975" lon="8.7780726"><ele>178.28571428571428</ele><time>2026-05-05T07:27:16.356Z</time></trkpt><trkpt lat="44.7767237" lon="8.7780822"><ele>178.57142857142856</ele><time>2026-05-05T07:27:20.076Z</time></trkpt><trkpt lat="44.7766596" lon="8.7780859"><ele>178.85714285714283</ele><time>2026-05-05T07:27:25.617Z</time></trkpt><trkpt lat="44.7765961" lon="8.7780787"><ele>179.14285714285714</ele><time>2026-05-05T07:27:30.253Z</time></trkpt><trkpt lat="44.7765163" lon="8.7780636"><ele>179.42857142857144</ele><time>2026-05-05T07:27:35.561Z</time></trkpt><trkpt lat="44.7764406" lon="8.7780443"><ele>179.7142857142857</ele><time>2026-05-05T07:27:40.561Z</time></trkpt><trkpt lat="44.7763599" lon="8.7780287"><ele>180.0</ele><time>2026-05-05T07:27:45.561Z</time></trkpt><trkpt lat="44.7762799" lon="8.778017"><ele>180.0</ele><time>2026-05-05T07:27:51.561Z</time></trkpt><trkpt lat="44.776189" lon="8.7780086"><ele>180.0</ele><time>2026-05-05T07:27:57.561Z</time></trkpt><trkpt lat="44.7761245" lon="8.7779992"><ele>180.0</ele><time>2026-05-05T07:28:02.561Z</time></trkpt><trkpt lat="44.776058" lon="8.7779758"><ele>180.0</ele><time>2026-05-05T07:28:08.561Z</time></trkpt><trkpt lat="44.7759897" lon="8.777973"><ele>180.0</ele><time>2026-05-05T07:28:38.561Z</time></trkpt><trkpt lat="44.7759204" lon="8.777974"><ele>180.0</ele><time>2026-05-05T07:28:52.562Z</time></trkpt><trkpt lat="44.7758561" lon="8.777953"><ele>180.0</ele><time>2026-05-05T07:28:56.451Z</time></trkpt><trkpt lat="44.7757838" lon="8.7779336"><ele>180.0</ele><time>2026-05-05T07:29:01.561Z</time></trkpt><trkpt lat="44.7757154" lon="8.7779171"><ele>180.0</ele><time>2026-05-05T07:29:06.49Z</time></trkpt><trkpt lat="44.775646" lon="8.7779143"><ele>180.0</ele><time>2026-05-05T07:29:11.56Z</time></trkpt><trkpt lat="44.7755825" lon="8.7778962"><ele>180.0</ele><time>2026-05-05T07:29:16.937Z</time></trkpt><trkpt lat="44.7755191" lon="8.7778837"><ele>180.0</ele><time>2026-05-05T07:29:21.561Z</time></trkpt><trkpt lat="44.7754507" lon="8.7778686"><ele>180.0</ele><time>2026-05-05T07:29:26.855Z</time></trkpt><trkpt lat="44.7753741" lon="8.7778536"><ele>180.0</ele><time>2026-05-05T07:29:32.561Z</time></trkpt><trkpt lat="44.7753062" lon="8.7778406"><ele>180.0</ele><time>2026-05-05T07:29:38.561Z</time></trkpt><trkpt lat="44.7752416" lon="8.7778337"><ele>180.0</ele><time>2026-05-05T07:29:42.56Z</time></trkpt><trkpt lat="44.7751723" lon="8.7778171"><ele>180.0</ele><time>2026-05-05T07:29:48.561Z</time></trkpt><trkpt lat="44.7751049" lon="8.7777969"><ele>180.0</ele><time>2026-05-05T07:29:52.561Z</time></trkpt><trkpt lat="44.7750332" lon="8.7777766"><ele>180.0</ele><time>2026-05-05T07:29:57.561Z</time></trkpt><trkpt lat="44.7749668" lon="8.777761"><ele>180.0</ele><time>2026-05-05T07:30:01.561Z</time></trkpt><trkpt lat="44.7748992" lon="8.7777576"><ele>180.0</ele><time>2026-05-05T07:30:06.952Z</time></trkpt><trkpt lat="44.7748302" lon="8.777736"><ele>179.85714285714286</ele><time>2026-05-05T07:30:11.016Z</time></trkpt><trkpt lat="44.7747606" lon="8.7777289"><ele>179.71428571428572</ele><time>2026-05-05T07:30:16.566Z</time></trkpt><trkpt lat="44.7746911" lon="8.7777111"><ele>179.57142857142858</ele><time>2026-05-05T07:30:20.561Z</time></trkpt><trkpt lat="44.7746265" lon="8.7776907"><ele>179.42857142857144</ele><time>2026-05-05T07:30:24.32Z</time></trkpt><trkpt lat="44.7745588" lon="8.7776838"><ele>179.28571428571428</ele><time>2026-05-05T07:30:29.561Z</time></trkpt><trkpt lat="44.7744767" lon="8.7776639"><ele>179.14285714285717</ele><time>2026-05-05T07:30:35.332Z</time></trkpt><trkpt lat="44.7744038" lon="8.7776493"><ele>179.0</ele><time>2026-05-05T07:30:39.457Z</time></trkpt><trkpt lat="44.7743288" lon="8.7776371"><ele>179.00000000000003</ele><time>2026-05-05T07:30:45.916Z</time></trkpt><trkpt lat="44.7742612" lon="8.7776123"><ele>179.0</ele><time>2026-05-05T07:30:49.14Z</time></trkpt><trkpt lat="44.7741786" lon="8.7775962"><ele>179.0</ele><time>2026-05-05T07:30:55.051Z</time></trkpt><trkpt lat="44.7741112" lon="8.7775902"><ele>179.0</ele><time>2026-05-05T07:30:58.716Z</time></trkpt><trkpt lat="44.7740425" lon="8.777579"><ele>179.0</ele><time>2026-05-05T07:31:03.293Z</time></trkpt><trkpt lat="44.7739771" lon="8.7775592"><ele>179.00000000000003</ele><time>2026-05-05T07:31:07.896Z</time></trkpt><trkpt lat="44.7739093" lon="8.7775417"><ele>179.0</ele><time>2026-05-05T07:31:12.517Z</time></trkpt><trkpt lat="44.7738405" lon="8.7775374"><ele>179.00000000000003</ele><time>2026-05-05T07:31:18.038Z</time></trkpt><trkpt lat="44.7737747" lon="8.7775181"><ele>179.0</ele><time>2026-05-05T07:31:21.712Z</time></trkpt><trkpt lat="44.773705" lon="8.7775019"><ele>179.0</ele><time>2026-05-05T07:31:26.318Z</time></trkpt><trkpt lat="44.7736383" lon="8.7774993"><ele>179.0</ele><time>2026-05-05T07:31:31.86Z</time></trkpt><trkpt lat="44.7735719" lon="8.7774904"><ele>179.0</ele><time>2026-05-05T07:31:35.561Z</time></trkpt><trkpt lat="44.7735003" lon="8.7775026"><ele>179.00000000000003</ele><time>2026-05-05T07:31:40.17Z</time></trkpt><trkpt lat="44.7734337" lon="8.7775304"><ele>179.0</ele><time>2026-05-05T07:31:44.818Z</time></trkpt><trkpt lat="44.7733695" lon="8.7775657"><ele>179.14285714285717</ele><time>2026-05-05T07:31:49.435Z</time></trkpt><trkpt lat="44.7733082" lon="8.7776073"><ele>179.28571428571428</ele><time>2026-05-05T07:31:54.055Z</time></trkpt><trkpt lat="44.7732499" lon="8.7776587"><ele>179.42857142857144</ele><time>2026-05-05T07:31:58.682Z</time></trkpt><trkpt lat="44.7731973" lon="8.7777075"><ele>179.57142857142858</ele><time>2026-05-05T07:32:03.561Z</time></trkpt><trkpt lat="44.7731328" lon="8.7777651"><ele>179.71428571428572</ele><time>2026-05-05T07:32:08.561Z</time></trkpt><trkpt lat="44.7730751" lon="8.777812"><ele>179.85714285714286</ele><time>2026-05-05T07:32:13.417Z</time></trkpt><trkpt lat="44.773019" lon="8.7778647"><ele>180.0</ele><time>2026-05-05T07:32:17.561Z</time></trkpt><trkpt lat="44.772957" lon="8.7779208"><ele>180.0</ele><time>2026-05-05T07:32:22.291Z</time></trkpt><trkpt lat="44.7728912" lon="8.7779634"><ele>180.0</ele><time>2026-05-05T07:32:27.318Z</time></trkpt><trkpt lat="44.7728235" lon="8.7779927"><ele>180.0</ele><time>2026-05-05T07:32:33.561Z</time></trkpt><trkpt lat="44.772741" lon="8.7780059"><ele>180.0</ele><time>2026-05-05T07:32:39.29Z</time></trkpt><trkpt lat="44.7726776" lon="8.7780259"><ele>180.0</ele><time>2026-05-05T07:32:42.954Z</time></trkpt><trkpt lat="44.7726097" lon="8.7780299"><ele>180.0</ele><time>2026-05-05T07:32:48.476Z</time></trkpt><trkpt lat="44.7725454" lon="8.778004"><ele>180.0</ele><time>2026-05-05T07:32:52.562Z</time></trkpt><trkpt lat="44.7724792" lon="8.7779713"><ele>180.57142857142856</ele><time>2026-05-05T07:32:58.218Z</time></trkpt><trkpt lat="44.772419" lon="8.7779233"><ele>181.14285714285717</ele><time>2026-05-05T07:33:01.561Z</time></trkpt><trkpt lat="44.7723543" lon="8.777892"><ele>181.71428571428572</ele><time>2026-05-05T07:33:08.354Z</time></trkpt><trkpt lat="44.7722839" lon="8.7778503"><ele>182.28571428571428</ele><time>2026-05-05T07:33:12.99Z</time></trkpt><trkpt lat="44.7722223" lon="8.7778119"><ele>182.85714285714283</ele><time>2026-05-05T07:33:17.561Z</time></trkpt><trkpt lat="44.7721559" lon="8.7777708"><ele>183.42857142857144</ele><time>2026-05-05T07:33:21.562Z</time></trkpt><trkpt lat="44.7720864" lon="8.7777364"><ele>184.0</ele><time>2026-05-05T07:33:25.562Z</time></trkpt><trkpt lat="44.772016" lon="8.7777023"><ele>184.0</ele><time>2026-05-05T07:33:31.562Z</time></trkpt><trkpt lat="44.7719435" lon="8.7776748"><ele>184.0</ele><time>2026-05-05T07:33:35.561Z</time></trkpt><trkpt lat="44.7718785" lon="8.7776692"><ele>184.0</ele><time>2026-05-05T07:33:41.562Z</time></trkpt><trkpt lat="44.7717949" lon="8.7776689"><ele>184.0</ele><time>2026-05-05T07:33:46.562Z</time></trkpt><trkpt lat="44.771862" lon="8.7777175"><ele>184.0</ele><time>2026-05-05T07:33:57.562Z</time></trkpt><trkpt lat="44.7717919" lon="8.7776871"><ele>184.0</ele><time>2026-05-05T07:34:20.562Z</time></trkpt><trkpt lat="44.7717058" lon="8.7776887"><ele>184.0</ele><time>2026-05-05T07:34:25.376Z</time></trkpt><trkpt lat="44.7716391" lon="8.7777019"><ele>184.0</ele><time>2026-05-05T07:34:29.091Z</time></trkpt><trkpt lat="44.7715623" lon="8.7777266"><ele>184.0</ele><time>2026-05-05T07:34:34.692Z</time></trkpt><trkpt lat="44.7714968" lon="8.7777555"><ele>184.0</ele><time>2026-05-05T07:34:39.319Z</time></trkpt><trkpt lat="44.7714289" lon="8.777785"><ele>184.0</ele><time>2026-05-05T07:34:43.565Z</time></trkpt><trkpt lat="44.7713714" lon="8.7778297"><ele>184.0</ele><time>2026-05-05T07:34:47.562Z</time></trkpt><trkpt lat="44.7713131" lon="8.7778774"><ele>184.0</ele><time>2026-05-05T07:34:52.296Z</time></trkpt><trkpt lat="44.7712425" lon="8.7779316"><ele>184.0</ele><time>2026-05-05T07:34:57.461Z</time></trkpt><trkpt lat="44.7711874" lon="8.7779782"><ele>184.0</ele><time>2026-05-05T07:35:03.563Z</time></trkpt><trkpt lat="44.7711272" lon="8.7780429"><ele>184.0</ele><time>2026-05-05T07:35:08.562Z</time></trkpt><trkpt lat="44.7710673" lon="8.7780889"><ele>184.0</ele><time>2026-05-05T07:35:13.562Z</time></trkpt><trkpt lat="44.7710152" lon="8.7781465"><ele>184.0</ele><time>2026-05-05T07:35:18.278Z</time></trkpt><trkpt lat="44.7709514" lon="8.7782053"><ele>184.0</ele><time>2026-05-05T07:35:23.562Z</time></trkpt><trkpt lat="44.7708909" lon="8.778258"><ele>184.0</ele><time>2026-05-05T07:35:28.562Z</time></trkpt><trkpt lat="44.770832" lon="8.7783156"><ele>184.0</ele><time>2026-05-05T07:35:33.562Z</time></trkpt><trkpt lat="44.7707789" lon="8.778367"><ele>184.0</ele><time>2026-05-05T07:35:37.641Z</time></trkpt><trkpt lat="44.7707194" lon="8.7784289"><ele>184.0</ele><time>2026-05-05T07:35:43.595Z</time></trkpt><trkpt lat="44.770665" lon="8.7784922"><ele>184.0</ele><time>2026-05-05T07:35:56.663Z</time></trkpt><trkpt lat="44.7705995" lon="8.7785393"><ele>184.0</ele><time>2026-05-05T07:36:01.493Z</time></trkpt><trkpt lat="44.7705398" lon="8.7785833"><ele>184.0</ele><time>2026-05-05T07:36:06.075Z</time></trkpt><trkpt lat="44.7704768" lon="8.7786407"><ele>184.0</ele><time>2026-05-05T07:36:11.563Z</time></trkpt><trkpt lat="44.7704193" lon="8.7786922"><ele>184.2857142857143</ele><time>2026-05-05T07:36:16.433Z</time></trkpt><trkpt lat="44.7703564" lon="8.7787416"><ele>184.57142857142856</ele><time>2026-05-05T07:36:21.537Z</time></trkpt><trkpt lat="44.7702991" lon="8.7787921"><ele>184.85714285714286</ele><time>2026-05-05T07:36:26.562Z</time></trkpt><trkpt lat="44.7702425" lon="8.7788459"><ele>185.14285714285717</ele><time>2026-05-05T07:36:31.341Z</time></trkpt><trkpt lat="44.7701841" lon="8.7788901"><ele>185.42857142857144</ele><time>2026-05-05T07:36:35.996Z</time></trkpt><trkpt lat="44.7701314" lon="8.7789458"><ele>185.71428571428572</ele><time>2026-05-05T07:36:40.653Z</time></trkpt><trkpt lat="44.7700784" lon="8.7790004"><ele>186.0</ele><time>2026-05-05T07:36:45.331Z</time></trkpt><trkpt lat="44.7700199" lon="8.7790462"><ele>186.00000000000003</ele><time>2026-05-05T07:36:50.038Z</time></trkpt><trkpt lat="44.7699528" lon="8.7791026"><ele>186.0</ele><time>2026-05-05T07:36:55.211Z</time></trkpt><trkpt lat="44.7698884" lon="8.7791754"><ele>186.0</ele><time>2026-05-05T07:37:01.46Z</time></trkpt><trkpt lat="44.7698251" lon="8.7792327"><ele>186.0</ele><time>2026-05-05T07:37:06.494Z</time></trkpt><trkpt lat="44.7697655" lon="8.7792776"><ele>186.0</ele><time>2026-05-05T07:37:11.562Z</time></trkpt><trkpt lat="44.7697029" lon="8.7793378"><ele>186.00000000000003</ele><time>2026-05-05T07:37:16.815Z</time></trkpt><trkpt lat="44.7696422" lon="8.779378"><ele>186.0</ele><time>2026-05-05T07:37:21.378Z</time></trkpt><trkpt lat="44.7695815" lon="8.7794399"><ele>186.00000000000003</ele><time>2026-05-05T07:37:26.999Z</time></trkpt><trkpt lat="44.7695191" lon="8.7794877"><ele>186.0</ele><time>2026-05-05T07:37:32.618Z</time></trkpt><trkpt lat="44.7694605" lon="8.7795426"><ele>186.0</ele><time>2026-05-05T07:37:37.496Z</time></trkpt><trkpt lat="44.7694128" lon="8.7796183"><ele>186.0</ele><time>2026-05-05T07:37:47.454Z</time></trkpt><trkpt lat="44.7693569" lon="8.7796761"><ele>186.0</ele><time>2026-05-05T07:37:52.582Z</time></trkpt><trkpt lat="44.7692915" lon="8.7797122"><ele>186.00000000000003</ele><time>2026-05-05T07:37:57.376Z</time></trkpt><trkpt lat="44.7692329" lon="8.7797603"><ele>186.0</ele><time>2026-05-05T07:38:02.524Z</time></trkpt><trkpt lat="44.7691678" lon="8.7798072"><ele>186.00000000000003</ele><time>2026-05-05T07:38:07.562Z</time></trkpt><trkpt lat="44.7691026" lon="8.7798695"><ele>186.0</ele><time>2026-05-05T07:38:12.562Z</time></trkpt><trkpt lat="44.7690505" lon="8.7799317"><ele>186.0</ele><time>2026-05-05T07:38:17.393Z</time></trkpt><trkpt lat="44.7689889" lon="8.7799759"><ele>186.0</ele><time>2026-05-05T07:38:22.497Z</time></trkpt><trkpt lat="44.7689209" lon="8.7800482"><ele>186.0</ele><time>2026-05-05T07:38:29.438Z</time></trkpt><trkpt lat="44.7688604" lon="8.7801011"><ele>186.00000000000003</ele><time>2026-05-05T07:38:34.472Z</time></trkpt><trkpt lat="44.768805" lon="8.7801465"><ele>186.0</ele><time>2026-05-05T07:38:38.196Z</time></trkpt><trkpt lat="44.7687416" lon="8.7802038"><ele>186.14285714285717</ele><time>2026-05-05T07:38:43.319Z</time></trkpt><trkpt lat="44.7686766" lon="8.7802495"><ele>186.28571428571428</ele><time>2026-05-05T07:38:48.562Z</time></trkpt><trkpt lat="44.7685985" lon="8.7803131"><ele>186.42857142857144</ele><time>2026-05-05T07:38:54.562Z</time></trkpt><trkpt lat="44.7685455" lon="8.780362"><ele>186.57142857142858</ele><time>2026-05-05T07:38:58.575Z</time></trkpt><trkpt lat="44.7684897" lon="8.7804085"><ele>186.71428571428572</ele><time>2026-05-05T07:39:02.335Z</time></trkpt><trkpt lat="44.7684371" lon="8.7804589"><ele>186.85714285714286</ele><time>2026-05-05T07:39:08.562Z</time></trkpt><trkpt lat="44.7683819" lon="8.7805046"><ele>187.0</ele><time>2026-05-05T07:39:12.594Z</time></trkpt><trkpt lat="44.7683152" lon="8.7805668"><ele>187.0</ele><time>2026-05-05T07:39:18.562Z</time></trkpt><trkpt lat="44.7682598" lon="8.7806316"><ele>187.0</ele><time>2026-05-05T07:39:23.335Z</time></trkpt><trkpt lat="44.7682036" lon="8.7806953"><ele>187.0</ele><time>2026-05-05T07:39:28.438Z</time></trkpt><trkpt lat="44.7681454" lon="8.7807468"><ele>187.0</ele><time>2026-05-05T07:39:33.116Z</time></trkpt><trkpt lat="44.7680788" lon="8.7808012"><ele>187.0</ele><time>2026-05-05T07:39:38.562Z</time></trkpt><trkpt lat="44.7680121" lon="8.7808516"><ele>187.0</ele><time>2026-05-05T07:39:43.562Z</time></trkpt><trkpt lat="44.7679526" lon="8.780899"><ele>187.0</ele><time>2026-05-05T07:39:48.562Z</time></trkpt><trkpt lat="44.767899" lon="8.7809457"><ele>187.0</ele><time>2026-05-05T07:39:54.335Z</time></trkpt><trkpt lat="44.7678498" lon="8.7810207"><ele>187.0</ele><time>2026-05-05T07:40:00.373Z</time></trkpt><trkpt lat="44.7677949" lon="8.7810727"><ele>187.0</ele><time>2026-05-05T07:40:05.518Z</time></trkpt><trkpt lat="44.7677382" lon="8.7811232"><ele>187.0</ele><time>2026-05-05T07:40:09.261Z</time></trkpt><trkpt lat="44.7676826" lon="8.7811855"><ele>187.0</ele><time>2026-05-05T07:40:12.118Z</time></trkpt><trkpt lat="44.7676328" lon="8.7812468"><ele>187.0</ele><time>2026-05-05T07:40:17.212Z</time></trkpt><trkpt lat="44.7675822" lon="8.781319"><ele>187.0</ele><time>2026-05-05T07:40:21.562Z</time></trkpt><trkpt lat="44.7675278" lon="8.7813813"><ele>187.42857142857142</ele><time>2026-05-05T07:40:25.554Z</time></trkpt><trkpt lat="44.7674755" lon="8.7814331"><ele>187.85714285714286</ele><time>2026-05-05T07:40:29.571Z</time></trkpt><trkpt lat="44.7674193" lon="8.7814925"><ele>188.28571428571428</ele><time>2026-05-05T07:40:34.562Z</time></trkpt><trkpt lat="44.7673699" lon="8.7815644"><ele>188.71428571428572</ele><time>2026-05-05T07:40:39.566Z</time></trkpt><trkpt lat="44.7673357" lon="8.7816401"><ele>189.14285714285717</ele><time>2026-05-05T07:40:44.562Z</time></trkpt><trkpt lat="44.7672986" lon="8.7817128"><ele>189.57142857142858</ele><time>2026-05-05T07:40:49.515Z</time></trkpt><trkpt lat="44.7672649" lon="8.7818021"><ele>190.0</ele><time>2026-05-05T07:40:54.562Z</time></trkpt><trkpt lat="44.7672377" lon="8.7818874"><ele>190.0</ele><time>2026-05-05T07:40:59.562Z</time></trkpt><trkpt lat="44.7672076" lon="8.781967"><ele>190.0</ele><time>2026-05-05T07:41:04.418Z</time></trkpt><trkpt lat="44.7671666" lon="8.7820644"><ele>190.0</ele><time>2026-05-05T07:41:10.514Z</time></trkpt><trkpt lat="44.767138" lon="8.7821447"><ele>190.0</ele><time>2026-05-05T07:41:15.565Z</time></trkpt><trkpt lat="44.767106" lon="8.782241"><ele>190.0</ele><time>2026-05-05T07:41:21.562Z</time></trkpt><trkpt lat="44.7670785" lon="8.7823545"><ele>190.0</ele><time>2026-05-05T07:41:27.416Z</time></trkpt><trkpt lat="44.7670476" lon="8.782435"><ele>190.0</ele><time>2026-05-05T07:41:32.562Z</time></trkpt><trkpt lat="44.7670055" lon="8.7825072"><ele>190.0</ele><time>2026-05-05T07:41:38.562Z</time></trkpt><trkpt lat="44.7669581" lon="8.7826058"><ele>190.0</ele><time>2026-05-05T07:41:43.563Z</time></trkpt><trkpt lat="44.7669325" lon="8.7826934"><ele>190.0</ele><time>2026-05-05T07:41:48.561Z</time></trkpt><trkpt lat="44.7669191" lon="8.7827825"><ele>190.0</ele><time>2026-05-05T07:41:53.371Z</time></trkpt><trkpt lat="44.7668846" lon="8.7828647"><ele>190.0</ele><time>2026-05-05T07:41:58.569Z</time></trkpt><trkpt lat="44.766859" lon="8.7829738"><ele>190.0</ele><time>2026-05-05T07:42:02.535Z</time></trkpt><trkpt lat="44.7668232" lon="8.7830621"><ele>190.0</ele><time>2026-05-05T07:42:06.563Z</time></trkpt><trkpt lat="44.766793" lon="8.7831419"><ele>190.0</ele><time>2026-05-05T07:42:10.563Z</time></trkpt><trkpt lat="44.76676" lon="8.7832358"><ele>190.0</ele><time>2026-05-05T07:42:16.377Z</time></trkpt><trkpt lat="44.7667391" lon="8.7833422"><ele>190.0</ele><time>2026-05-05T07:42:21.563Z</time></trkpt><trkpt lat="44.7667871" lon="8.7834239"><ele>190.0</ele><time>2026-05-05T07:42:27.563Z</time></trkpt><trkpt lat="44.7668604" lon="8.7834257"><ele>190.0</ele><time>2026-05-05T07:42:32.592Z</time></trkpt><trkpt lat="44.766923" lon="8.7834625"><ele>190.0</ele><time>2026-05-05T07:42:37.563Z</time></trkpt><trkpt lat="44.7670017" lon="8.7834967"><ele>190.14285714285714</ele><time>2026-05-05T07:42:42.563Z</time></trkpt><trkpt lat="44.7670677" lon="8.7835539"><ele>190.28571428571428</ele><time>2026-05-05T07:42:47.497Z</time></trkpt><trkpt lat="44.7671266" lon="8.7836053"><ele>190.42857142857144</ele><time>2026-05-05T07:42:51.563Z</time></trkpt><trkpt lat="44.767209" lon="8.78362"><ele>190.57142857142856</ele><time>2026-05-05T07:42:56.563Z</time></trkpt><trkpt lat="44.7672762" lon="8.7836233"><ele>190.7142857142857</ele><time>2026-05-05T07:43:03.512Z</time></trkpt><trkpt lat="44.7673479" lon="8.783645"><ele>190.85714285714286</ele><time>2026-05-05T07:43:08.377Z</time></trkpt><trkpt lat="44.7674123" lon="8.7836898"><ele>191.0</ele><time>2026-05-05T07:43:13.054Z</time></trkpt><trkpt lat="44.7674848" lon="8.7837096"><ele>191.0</ele><time>2026-05-05T07:43:16.563Z</time></trkpt><trkpt lat="44.7675505" lon="8.7837312"><ele>191.0</ele><time>2026-05-05T07:43:20.562Z</time></trkpt><trkpt lat="44.7676161" lon="8.7837689"><ele>191.0</ele><time>2026-05-05T07:43:24.564Z</time></trkpt><trkpt lat="44.7676842" lon="8.7838153"><ele>191.0</ele><time>2026-05-05T07:43:29.36Z</time></trkpt><trkpt lat="44.767751" lon="8.7838175"><ele>191.0</ele><time>2026-05-05T07:43:36.22Z</time></trkpt><trkpt lat="44.7678231" lon="8.7838383"><ele>191.0</ele><time>2026-05-05T07:43:41.392Z</time></trkpt><trkpt lat="44.7678846" lon="8.7838644"><ele>191.0</ele><time>2026-05-05T07:43:44.192Z</time></trkpt><trkpt lat="44.7679493" lon="8.7838827"><ele>190.2857142857143</ele><time>2026-05-05T07:43:47.935Z</time></trkpt><trkpt lat="44.7680123" lon="8.783882"><ele>189.57142857142856</ele><time>2026-05-05T07:43:52.89Z</time></trkpt><trkpt lat="44.768083" lon="8.7838951"><ele>188.85714285714286</ele><time>2026-05-05T07:43:59.514Z</time></trkpt><trkpt lat="44.7681533" lon="8.7838921"><ele>188.14285714285717</ele><time>2026-05-05T07:44:06.156Z</time></trkpt><trkpt lat="44.7682168" lon="8.7838556"><ele>187.42857142857144</ele><time>2026-05-05T07:44:09.919Z</time></trkpt><trkpt lat="44.7682965" lon="8.7838824"><ele>186.71428571428572</ele><time>2026-05-05T07:44:14.04Z</time></trkpt><trkpt lat="44.7683845" lon="8.7839049"><ele>186.0</ele><time>2026-05-05T07:44:20.563Z</time></trkpt><trkpt lat="44.7684375" lon="8.7839568"><ele>186.00000000000003</ele><time>2026-05-05T07:44:24.564Z</time></trkpt><trkpt lat="44.7685077" lon="8.7839813"><ele>186.0</ele><time>2026-05-05T07:44:30.516Z</time></trkpt><trkpt lat="44.7685816" lon="8.784008"><ele>186.0</ele><time>2026-05-05T07:44:34.298Z</time></trkpt><trkpt lat="44.7686495" lon="8.7840536"><ele>186.0</ele><time>2026-05-05T07:44:40.563Z</time></trkpt><trkpt lat="44.768711" lon="8.7841105"><ele>186.0</ele><time>2026-05-05T07:44:44.564Z</time></trkpt><trkpt lat="44.7687747" lon="8.78412"><ele>186.00000000000003</ele><time>2026-05-05T07:44:48.335Z</time></trkpt><trkpt lat="44.768838" lon="8.7841363"><ele>186.0</ele><time>2026-05-05T07:44:52.517Z</time></trkpt><trkpt lat="44.7689045" lon="8.7841606"><ele>186.2857142857143</ele><time>2026-05-05T07:44:56.563Z</time></trkpt><trkpt lat="44.7689671" lon="8.784189"><ele>186.57142857142858</ele><time>2026-05-05T07:45:01.394Z</time></trkpt><trkpt lat="44.7690131" lon="8.7841053"><ele>186.85714285714286</ele><time>2026-05-05T07:45:06.199Z</time></trkpt><trkpt lat="44.7690367" lon="8.7840184"><ele>187.14285714285717</ele><time>2026-05-05T07:45:10.816Z</time></trkpt><trkpt lat="44.7690607" lon="8.7839095"><ele>187.42857142857142</ele><time>2026-05-05T07:45:14.571Z</time></trkpt><trkpt lat="44.7690901" lon="8.7838165"><ele>187.71428571428572</ele><time>2026-05-05T07:45:20.563Z</time></trkpt><trkpt lat="44.7691187" lon="8.7837289"><ele>188.0</ele><time>2026-05-05T07:45:26.564Z</time></trkpt><trkpt lat="44.7691445" lon="8.7836167"><ele>188.0</ele><time>2026-05-05T07:45:32.274Z</time></trkpt><trkpt lat="44.7691568" lon="8.7835291"><ele>188.0</ele><time>2026-05-05T07:45:36.236Z</time></trkpt><trkpt lat="44.7692239" lon="8.7834742"><ele>188.0</ele><time>2026-05-05T07:45:40.356Z</time></trkpt><trkpt lat="44.7692693" lon="8.7833873"><ele>188.0</ele><time>2026-05-05T07:45:45.58Z</time></trkpt><trkpt lat="44.7693054" lon="8.7832906"><ele>188.0</ele><time>2026-05-05T07:45:51.317Z</time></trkpt><trkpt lat="44.7693236" lon="8.7831875"><ele>188.0</ele><time>2026-05-05T07:45:56.563Z</time></trkpt><trkpt lat="44.7693421" lon="8.7830883"><ele>188.0</ele><time>2026-05-05T07:46:01.515Z</time></trkpt><trkpt lat="44.7693544" lon="8.782993"><ele>188.28571428571428</ele><time>2026-05-05T07:46:06.56Z</time></trkpt><trkpt lat="44.7693709" lon="8.7828991"><ele>188.57142857142856</ele><time>2026-05-05T07:46:12.159Z</time></trkpt><trkpt lat="44.7693922" lon="8.7827938"><ele>188.85714285714286</ele><time>2026-05-05T07:46:16.894Z</time></trkpt><trkpt lat="44.7694065" lon="8.7827062"><ele>189.14285714285714</ele><time>2026-05-05T07:46:20.66Z</time></trkpt><trkpt lat="44.7694271" lon="8.7826064"><ele>189.42857142857144</ele><time>2026-05-05T07:46:25.297Z</time></trkpt><trkpt lat="44.7694512" lon="8.7825014"><ele>189.71428571428572</ele><time>2026-05-05T07:46:30.459Z</time></trkpt><trkpt lat="44.7694734" lon="8.7824052"><ele>190.0</ele><time>2026-05-05T07:46:35.135Z</time></trkpt><trkpt lat="44.7694886" lon="8.7823078"><ele>190.0</ele><time>2026-05-05T07:46:41.073Z</time></trkpt><trkpt lat="44.7695109" lon="8.7822172"><ele>190.0</ele><time>2026-05-05T07:46:44.439Z</time></trkpt><trkpt lat="44.7695372" lon="8.7821006"><ele>190.0</ele><time>2026-05-05T07:46:49.434Z</time></trkpt><trkpt lat="44.7695583" lon="8.7820158"><ele>190.0</ele><time>2026-05-05T07:46:54.03Z</time></trkpt><trkpt lat="44.7695778" lon="8.7819179"><ele>190.0</ele><time>2026-05-05T07:46:57.715Z</time></trkpt><trkpt lat="44.769606" lon="8.7818292"><ele>190.0</ele><time>2026-05-05T07:47:02.391Z</time></trkpt><trkpt lat="44.7696671" lon="8.7817595"><ele>190.0</ele><time>2026-05-05T07:47:09.563Z</time></trkpt><trkpt lat="44.7697423" lon="8.7817616"><ele>190.0</ele><time>2026-05-05T07:47:14.415Z</time></trkpt><trkpt lat="44.7698009" lon="8.7818016"><ele>190.0</ele><time>2026-05-05T07:47:18.199Z</time></trkpt><trkpt lat="44.7698738" lon="8.7818266"><ele>190.0</ele><time>2026-05-05T07:47:22.855Z</time></trkpt><trkpt lat="44.7699449" lon="8.781867"><ele>190.0</ele><time>2026-05-05T07:47:29.563Z</time></trkpt><trkpt lat="44.7700076" lon="8.7818869"><ele>190.0</ele><time>2026-05-05T07:47:36.562Z</time></trkpt><trkpt lat="44.7700761" lon="8.7819209"><ele>190.0</ele><time>2026-05-05T07:47:42.563Z</time></trkpt><trkpt lat="44.7701421" lon="8.7819417"><ele>190.0</ele><time>2026-05-05T07:47:46.563Z</time></trkpt><trkpt lat="44.7702209" lon="8.7819759"><ele>190.0</ele><time>2026-05-05T07:47:52.355Z</time></trkpt><trkpt lat="44.7702871" lon="8.7819869"><ele>190.0</ele><time>2026-05-05T07:47:56.279Z</time></trkpt><trkpt lat="44.7703503" lon="8.7819892"><ele>190.0</ele><time>2026-05-05T07:47:59.563Z</time></trkpt><trkpt lat="44.7704041" lon="8.7820535"><ele>190.0</ele><time>2026-05-05T07:48:04.563Z</time></trkpt><trkpt lat="44.7704955" lon="8.7820818"><ele>190.0</ele><time>2026-05-05T07:48:12.234Z</time></trkpt><trkpt lat="44.7705691" lon="8.7820795"><ele>190.0</ele><time>2026-05-05T07:48:16.951Z</time></trkpt><trkpt lat="44.7706343" lon="8.7820922"><ele>190.0</ele><time>2026-05-05T07:48:20.655Z</time></trkpt><trkpt lat="44.770697" lon="8.782118"><ele>190.0</ele><time>2026-05-05T07:48:24.378Z</time></trkpt><trkpt lat="44.770769" lon="8.7821222"><ele>190.0</ele><time>2026-05-05T07:48:28.091Z</time></trkpt><trkpt lat="44.7708546" lon="8.7821506"><ele>190.0</ele><time>2026-05-05T07:48:33.255Z</time></trkpt><trkpt lat="44.7709163" lon="8.7821886"><ele>190.0</ele><time>2026-05-05T07:48:36.999Z</time></trkpt><trkpt lat="44.7710176" lon="8.7822867"><ele>190.0</ele><time>2026-05-05T07:48:45.562Z</time></trkpt><trkpt lat="44.7710933" lon="8.782305"><ele>190.0</ele><time>2026-05-05T07:48:48.564Z</time></trkpt><trkpt lat="44.7711614" lon="8.7823253"><ele>189.66666666666669</ele><time>2026-05-05T07:48:52.502Z</time></trkpt><trkpt lat="44.7712316" lon="8.7823241"><ele>189.33333333333334</ele><time>2026-05-05T07:48:55.563Z</time></trkpt><trkpt lat="44.7713003" lon="8.7823223"><ele>189.0</ele><time>2026-05-05T07:48:59.563Z</time></trkpt><trkpt lat="44.7713583" lon="8.782378"><ele>188.66666666666666</ele><time>2026-05-05T07:49:10.563Z</time></trkpt><trkpt lat="44.7714555" lon="8.7824125"><ele>188.33333333333331</ele><time>2026-05-05T07:49:14.563Z</time></trkpt><trkpt lat="44.7715304" lon="8.7824331"><ele>188.0</ele><time>2026-05-05T07:49:20.417Z</time></trkpt><trkpt lat="44.7716137" lon="8.7824733"><ele>188.0</ele><time>2026-05-05T07:49:25.056Z</time></trkpt><trkpt lat="44.7716899" lon="8.7824997"><ele>188.0</ele><time>2026-05-05T07:49:28.759Z</time></trkpt><trkpt lat="44.771762" lon="8.7825197"><ele>188.0</ele><time>2026-05-05T07:49:34.321Z</time></trkpt><trkpt lat="44.7718377" lon="8.7825383"><ele>188.0</ele><time>2026-05-05T07:49:39.959Z</time></trkpt><trkpt lat="44.7719005" lon="8.7825684"><ele>188.0</ele><time>2026-05-05T07:49:44.219Z</time></trkpt><trkpt lat="44.7719606" lon="8.7826179"><ele>188.0</ele><time>2026-05-05T07:49:50.196Z</time></trkpt><trkpt lat="44.7720246" lon="8.7826613"><ele>188.0</ele><time>2026-05-05T07:49:52.337Z</time></trkpt><trkpt lat="44.7720898" lon="8.7827128"><ele>188.28571428571428</ele><time>2026-05-05T07:49:56.564Z</time></trkpt><trkpt lat="44.7721544" lon="8.7827627"><ele>188.57142857142856</ele><time>2026-05-05T07:50:01.435Z</time></trkpt><trkpt lat="44.7722219" lon="8.7828165"><ele>188.85714285714286</ele><time>2026-05-05T07:50:07.016Z</time></trkpt><trkpt lat="44.7722719" lon="8.7828729"><ele>189.14285714285714</ele><time>2026-05-05T07:50:14.474Z</time></trkpt><trkpt lat="44.7723407" lon="8.7829321"><ele>189.42857142857144</ele><time>2026-05-05T07:50:17.274Z</time></trkpt><trkpt lat="44.7723888" lon="8.7829899"><ele>189.71428571428572</ele><time>2026-05-05T07:50:21.931Z</time></trkpt><trkpt lat="44.7724373" lon="8.7830511"><ele>190.0</ele><time>2026-05-05T07:50:26.58Z</time></trkpt><trkpt lat="44.7724869" lon="8.7831133"><ele>190.0</ele><time>2026-05-05T07:50:32.158Z</time></trkpt><trkpt lat="44.7725367" lon="8.783193"><ele>190.0</ele><time>2026-05-05T07:50:37.311Z</time></trkpt><trkpt lat="44.7725556" lon="8.7833059"><ele>190.0</ele><time>2026-05-05T07:50:44.564Z</time></trkpt><trkpt lat="44.7725865" lon="8.7834084"><ele>190.0</ele><time>2026-05-05T07:50:47.564Z</time></trkpt><trkpt lat="44.7726119" lon="8.7835017"><ele>190.0</ele><time>2026-05-05T07:50:51.331Z</time></trkpt><trkpt lat="44.7726275" lon="8.7836062"><ele>190.0</ele><time>2026-05-05T07:50:56.019Z</time></trkpt><trkpt lat="44.7726554" lon="8.7837044"><ele>189.42857142857144</ele><time>2026-05-05T07:51:01.559Z</time></trkpt><trkpt lat="44.7726997" lon="8.783785"><ele>188.85714285714286</ele><time>2026-05-05T07:51:06.575Z</time></trkpt><trkpt lat="44.7727214" lon="8.7838684"><ele>188.28571428571428</ele><time>2026-05-05T07:51:11.564Z</time></trkpt><trkpt lat="44.7727966" lon="8.7838597"><ele>187.71428571428572</ele><time>2026-05-05T07:51:15.43Z</time></trkpt><trkpt lat="44.7727933" lon="8.7839573"><ele>187.14285714285714</ele><time>2026-05-05T07:51:23.255Z</time></trkpt><trkpt lat="44.7728333" lon="8.7840652"><ele>186.57142857142858</ele><time>2026-05-05T07:51:26.035Z</time></trkpt><trkpt lat="44.772862" lon="8.7841591"><ele>186.0</ele><time>2026-05-05T07:51:29.779Z</time></trkpt><trkpt lat="44.7728877" lon="8.7842617"><ele>186.14285714285717</ele><time>2026-05-05T07:51:34.514Z</time></trkpt><trkpt lat="44.7728852" lon="8.784363"><ele>186.28571428571428</ele><time>2026-05-05T07:51:38.564Z</time></trkpt><trkpt lat="44.7728951" lon="8.78446"><ele>186.42857142857144</ele><time>2026-05-05T07:51:45.564Z</time></trkpt><trkpt lat="44.7729104" lon="8.7845591"><ele>186.57142857142858</ele><time>2026-05-05T07:51:50.272Z</time></trkpt><trkpt lat="44.7729126" lon="8.7846601"><ele>186.71428571428572</ele><time>2026-05-05T07:51:55.832Z</time></trkpt><trkpt lat="44.7728905" lon="8.7847488"><ele>186.85714285714286</ele><time>2026-05-05T07:51:58.599Z</time></trkpt><trkpt lat="44.7728886" lon="8.7848521"><ele>187.0</ele><time>2026-05-05T07:52:03.26Z</time></trkpt><trkpt lat="44.7729233" lon="8.784952"><ele>187.0</ele><time>2026-05-05T07:52:08.88Z</time></trkpt><trkpt lat="44.7729284" lon="8.7850568"><ele>187.0</ele><time>2026-05-05T07:52:13.517Z</time></trkpt><trkpt lat="44.7729142" lon="8.7851657"><ele>187.0</ele><time>2026-05-05T07:52:19.563Z</time></trkpt><trkpt lat="44.7728946" lon="8.7852628"><ele>187.0</ele><time>2026-05-05T07:52:25.564Z</time></trkpt><trkpt lat="44.7728696" lon="8.7853532"><ele>187.0</ele><time>2026-05-05T07:52:31.34Z</time></trkpt><trkpt lat="44.772857" lon="8.7854539"><ele>187.0</ele><time>2026-05-05T07:52:36.512Z</time></trkpt><trkpt lat="44.77284" lon="8.7855438"><ele>187.0</ele><time>2026-05-05T07:52:41.517Z</time></trkpt><trkpt lat="44.7728141" lon="8.7856448"><ele>187.0</ele><time>2026-05-05T07:52:47.564Z</time></trkpt><trkpt lat="44.7727912" lon="8.7857293"><ele>187.0</ele><time>2026-05-05T07:52:53.572Z</time></trkpt><trkpt lat="44.7727489" lon="8.7858134"><ele>187.0</ele><time>2026-05-05T07:52:57.334Z</time></trkpt><trkpt lat="44.7726938" lon="8.785872"><ele>187.0</ele><time>2026-05-05T07:53:02.498Z</time></trkpt><trkpt lat="44.7726905" lon="8.785981"><ele>187.0</ele><time>2026-05-05T07:53:07.234Z</time></trkpt><trkpt lat="44.7726648" lon="8.7860701"><ele>187.0</ele><time>2026-05-05T07:53:11.434Z</time></trkpt><trkpt lat="44.7726539" lon="8.7861581"><ele>187.0</ele><time>2026-05-05T07:53:15.564Z</time></trkpt><trkpt lat="44.7726256" lon="8.7862495"><ele>187.28571428571428</ele><time>2026-05-05T07:53:20.31Z</time></trkpt><trkpt lat="44.7725952" lon="8.7863317"><ele>187.57142857142858</ele><time>2026-05-05T07:53:25.058Z</time></trkpt><trkpt lat="44.7725509" lon="8.7864095"><ele>187.85714285714286</ele><time>2026-05-05T07:53:34.564Z</time></trkpt><trkpt lat="44.77251" lon="8.7864897"><ele>188.14285714285714</ele><time>2026-05-05T07:53:38.564Z</time></trkpt><trkpt lat="44.7724694" lon="8.7865618"><ele>188.42857142857144</ele><time>2026-05-05T07:53:43.565Z</time></trkpt><trkpt lat="44.7724252" lon="8.7866478"><ele>188.71428571428572</ele><time>2026-05-05T07:53:48.564Z</time></trkpt><trkpt lat="44.7723964" lon="8.786745"><ele>189.0</ele><time>2026-05-05T07:53:52.392Z</time></trkpt><trkpt lat="44.7723534" lon="8.7868187"><ele>188.85714285714286</ele><time>2026-05-05T07:53:57.563Z</time></trkpt><trkpt lat="44.7723005" lon="8.7868933"><ele>188.71428571428572</ele><time>2026-05-05T07:54:02.252Z</time></trkpt><trkpt lat="44.7722637" lon="8.786968"><ele>188.57142857142856</ele><time>2026-05-05T07:54:06.564Z</time></trkpt><trkpt lat="44.7722067" lon="8.7870403"><ele>188.42857142857144</ele><time>2026-05-05T07:54:12.564Z</time></trkpt><trkpt lat="44.7721541" lon="8.7870926"><ele>188.28571428571428</ele><time>2026-05-05T07:54:15.563Z</time></trkpt><trkpt lat="44.7721334" lon="8.7871798"><ele>188.14285714285714</ele><time>2026-05-05T07:54:19.519Z</time></trkpt><trkpt lat="44.7721921" lon="8.7872418"><ele>188.0</ele><time>2026-05-05T07:54:24.564Z</time></trkpt><trkpt lat="44.7722607" lon="8.7872992"><ele>188.0</ele><time>2026-05-05T07:54:29.564Z</time></trkpt><trkpt lat="44.772329" lon="8.7873256"><ele>188.0</ele><time>2026-05-05T07:54:34.564Z</time></trkpt><trkpt lat="44.7723966" lon="8.7873398"><ele>188.0</ele><time>2026-05-05T07:54:39.571Z</time></trkpt><trkpt lat="44.772475" lon="8.7873505"><ele>188.0</ele><time>2026-05-05T07:54:43.319Z</time></trkpt><trkpt lat="44.7724938" lon="8.7874389"><ele>188.0</ele><time>2026-05-05T07:54:48.577Z</time></trkpt><trkpt lat="44.7725032" lon="8.7875458"><ele>188.0</ele><time>2026-05-05T07:54:53.564Z</time></trkpt><trkpt lat="44.7725116" lon="8.7876431"><ele>188.0</ele><time>2026-05-05T07:54:57.419Z</time></trkpt><trkpt lat="44.7725207" lon="8.7877323"><ele>185.0</ele><time>2026-05-05T07:55:01.563Z</time></trkpt><trkpt lat="44.7725316" lon="8.7878386"><ele>185.0</ele><time>2026-05-05T07:55:05.564Z</time></trkpt><trkpt lat="44.772539" lon="8.7879364"><ele>185.0</ele><time>2026-05-05T07:55:11.565Z</time></trkpt><trkpt lat="44.7725518" lon="8.7880435"><ele>185.0</ele><time>2026-05-05T07:55:16.564Z</time></trkpt><trkpt lat="44.7725628" lon="8.7881491"><ele>185.0</ele><time>2026-05-05T07:55:21.564Z</time></trkpt></trkseg><trkseg><trkpt lat="44.7701503" lon="8.7889252"><ele>193.0</ele><time>2026-05-05T07:59:39.565Z</time></trkpt><trkpt lat="44.7700728" lon="8.7888729"><ele>193.0</ele><time>2026-05-05T07:59:49.565Z</time></trkpt></trkseg></trk></gpx>